Wetterdaten: aktuell Dienstag, 11.12.2018 14:50
Datum Zeit Temp. Aussen Temp. o. S. +5cm Feuchte Auss Luftdruck Regen Sonnenschein Regendauer Solar Windben Empfang
11.12.2018 14:50 6,7 C 6,7 C 5,6 C 85 % 1021,4 hPa 0,0 l/m 0 min 0 min 74 W/m 16,1 km/h (3 Bft) 95,74 %
11.12.2018 14:48 6,7 C 6,7 C 5,6 C 85 % 1021,5 hPa 0,0 l/m 0 min 0 min 80 W/m 6,4 km/h (2 Bft) 95,74 %
11.12.2018 14:46 6,7 C 6,7 C 5,6 C 85 % 1021,4 hPa 0,0 l/m 0 min 0 min 79 W/m 9,7 km/h (2 Bft) 95,74 %
11.12.2018 14:44 6,7 C 6,7 C 5,6 C 84 % 1021,4 hPa 0,0 l/m 0 min 0 min 77 W/m 9,7 km/h (2 Bft) 95,65 %
11.12.2018 14:42 6,7 C 6,7 C 5,6 C 84 % 1021,5 hPa 0,0 l/m 0 min 0 min 82 W/m 16,1 km/h (3 Bft) 95,74 %
11.12.2018 14:40 6,7 C 6,7 C 5,6 C 84 % 1021,5 hPa 0,0 l/m 0 min 0 min 79 W/m 16,1 km/h (3 Bft) 95,74 %
11.12.2018 14:38 6,7 C 6,7 C 5,6 C 84 % 1021,5 hPa 0,0 l/m 0 min 0 min 77 W/m 22,5 km/h (4 Bft) 93,75 %
11.12.2018 14:36 6,8 C 6,7 C 5,6 C 84 % 1021,5 hPa 0,0 l/m 0 min 0 min 82 W/m 12,9 km/h (3 Bft) 95,74 %
11.12.2018 14:34 6,8 C 6,7 C 5,6 C 84 % 1021,5 hPa 0,0 l/m 2 min 0 min 119 W/m 12,9 km/h (3 Bft) 95,65 %
11.12.2018 14:32 6,8 C 6,7 C 5,6 C 84 % 1021,5 hPa 0,0 l/m 0 min 0 min 96 W/m 12,9 km/h (3 Bft) 95,74 %
11.12.2018 14:30 6,8 C 6,7 C 5,6 C 84 % 1021,5 hPa 0,0 l/m 0 min 0 min 104 W/m 22,5 km/h (4 Bft) 95,74 %
11.12.2018 14:28 6,9 C 6,7 C 5,6 C 84 % 1021,5 hPa 0,0 l/m 0 min 0 min 108 W/m 19,3 km/h (3 Bft) 93,62 %
11.12.2018 14:26 6,9 C 7,2 C 5,6 C 84 % 1021,6 hPa 0,0 l/m 0 min 0 min 97 W/m 12,9 km/h (3 Bft) 95,74 %
11.12.2018 14:24 7,0 C 6,7 C 5,6 C 84 % 1021,6 hPa 0,0 l/m 0 min 0 min 78 W/m 9,7 km/h (2 Bft) 95,74 %
11.12.2018 14:22 7,0 C 6,7 C 5,6 C 84 % 1021,5 hPa 0,0 l/m 0 min 0 min 66 W/m 12,9 km/h (3 Bft) 95,65 %
11.12.2018 14:20 7,1 C 6,7 C 5,6 C 83 % 1021,6 hPa 0,0 l/m 0 min 0 min 69 W/m 12,9 km/h (3 Bft) 93,62 %
11.12.2018 14:18 7,1 C 7,2 C 5,6 C 83 % 1021,6 hPa 0,0 l/m 0 min 0 min 77 W/m 12,9 km/h (3 Bft) 97,87 %
11.12.2018 14:16 7,1 C 7,2 C 5,6 C 83 % 1021,6 hPa 0,0 l/m 0 min 0 min 83 W/m 9,7 km/h (2 Bft) 95,74 %
11.12.2018 14:14 7,1 C 7,2 C 5,6 C 83 % 1021,6 hPa 0,0 l/m 0 min 0 min 81 W/m 19,3 km/h (3 Bft) 95,74 %
11.12.2018 14:12 7,2 C 7,2 C 5,6 C 83 % 1021,6 hPa 0,0 l/m 0 min 0 min 87 W/m 19,3 km/h (3 Bft) 100,00 %
11.12.2018 14:10 7,2 C 7,2 C 5,6 C 83 % 1021,6 hPa 0,0 l/m 0 min 0 min 91 W/m 19,3 km/h (3 Bft) 100,00 %
11.12.2018 14:08 7,2 C 7,2 C 5,6 C 83 % 1021,6 hPa 0,0 l/m 0 min 0 min 87 W/m 16,1 km/h (3 Bft) 100,00 %
11.12.2018 14:06 7,3 C 7,8 C 5,6 C 83 % 1021,6 hPa 0,0 l/m 0 min 0 min 78 W/m 16,1 km/h (3 Bft) 100,00 %
11.12.2018 14:04 7,3 C 8,3 C 5,6 C 83 % 1021,6 hPa 0,0 l/m 0 min 0 min 79 W/m 12,9 km/h (3 Bft) 100,00 %
11.12.2018 14:02 7,4 C 8,9 C 6,1 C 83 % 1021,6 hPa 0,0 l/m 2 min 0 min 139 W/m 12,9 km/h (3 Bft) 100,00 %
11.12.2018 14:00 7,4 C 9,4 C 6,1 C 82 % 1021,6 hPa 0,0 l/m 2 min 0 min 140 W/m 16,1 km/h (3 Bft) 100,00 %
11.12.2018 13:58 7,4 C 8,3 C 6,1 C 82 % 1021,6 hPa 0,0 l/m 2 min 0 min 158 W/m 12,9 km/h (3 Bft) 100,00 %
11.12.2018 13:56 7,5 C 7,8 C 6,1 C 82 % 1021,6 hPa 0,0 l/m 0 min 0 min 115 W/m 16,1 km/h (3 Bft) 100,00 %
11.12.2018 13:54 7,6 C 7,8 C 6,1 C 82 % 1021,6 hPa 0,0 l/m 0 min 0 min 114 W/m 16,1 km/h (3 Bft) 100,00 %
11.12.2018 13:52 7,6 C 7,8 C 6,1 C 82 % 1021,6 hPa 0,0 l/m 0 min 0 min 109 W/m 12,9 km/h (3 Bft) 100,00 %
11.12.2018 13:50 7,6 C 7,8 C 6,1 C 82 % 1021,6 hPa 0,0 l/m 0 min 0 min 107 W/m 12,9 km/h (3 Bft) 100,00 %
11.12.2018 13:48 7,7 C 8,3 C 6,1 C 82 % 1021,7 hPa 0,0 l/m 0 min 0 min 111 W/m 9,7 km/h (2 Bft) 100,00 %
11.12.2018 13:46 7,7 C 8,9 C 6,1 C 82 % 1021,6 hPa 0,0 l/m 2 min 0 min 142 W/m 16,1 km/h (3 Bft) 100,00 %
11.12.2018 13:44 7,7 C 9,4 C 6,7 C 82 % 1021,6 hPa 0,0 l/m 2 min 0 min 157 W/m 6,4 km/h (2 Bft) 100,00 %
11.12.2018 13:42 7,7 C 9,4 C 6,7 C 82 % 1021,7 hPa 0,0 l/m 2 min 0 min 216 W/m 16,1 km/h (3 Bft) 100,00 %
11.12.2018 13:40 7,7 C 10,6 C 6,7 C 83 % 1021,6 hPa 0,0 l/m 2 min 0 min 169 W/m 12,9 km/h (3 Bft) 97,87 %
11.12.2018 13:38 7,7 C 12,2 C 6,7 C 83 % 1021,6 hPa 0,0 l/m 2 min 0 min 188 W/m 12,9 km/h (3 Bft) 100,00 %
11.12.2018 13:36 7,7 C 14,4 C 6,7 C 84 % 1021,6 hPa 0,0 l/m 2 min 0 min 314 W/m 16,1 km/h (3 Bft) 100,00 %
11.12.2018 13:34 7,6 C 15,0 C 6,7 C 83 % 1021,5 hPa 0,0 l/m 2 min 0 min 327 W/m 9,7 km/h (2 Bft) 100,00 %
11.12.2018 13:32 7,5 C 13,9 C 6,7 C 83 % 1021,5 hPa 0,0 l/m 2 min 0 min 348 W/m 16,1 km/h (3 Bft) 100,00 %
11.12.2018 13:30 7,4 C 13,9 C 6,7 C 83 % 1021,6 hPa 0,0 l/m 2 min 0 min 343 W/m 16,1 km/h (3 Bft) 100,00 %
11.12.2018 13:28 7,3 C 12,8 C 6,1 C 83 % 1021,6 hPa 0,0 l/m 2 min 0 min 326 W/m 16,1 km/h (3 Bft) 100,00 %
11.12.2018 13:26 7,3 C 11,7 C 6,1 C 83 % 1021,6 hPa 0,0 l/m 2 min 0 min 249 W/m 19,3 km/h (3 Bft) 100,00 %
11.12.2018 13:24 7,3 C 11,1 C 6,1 C 84 % 1021,6 hPa 0,0 l/m 2 min 0 min 250 W/m 12,9 km/h (3 Bft) 97,87 %
11.12.2018 13:22 7,2 C 10,6 C 6,1 C 83 % 1021,6 hPa 0,0 l/m 2 min 0 min 165 W/m 16,1 km/h (3 Bft) 100,00 %
11.12.2018 13:20 7,2 C 10,6 C 6,1 C 83 % 1021,6 hPa 0,0 l/m 2 min 0 min 164 W/m 9,7 km/h (2 Bft) 100,00 %
11.12.2018 13:18 7,2 C 11,1 C 6,1 C 83 % 1021,6 hPa 0,0 l/m 2 min 0 min 196 W/m 12,9 km/h (3 Bft) 100,00 %
11.12.2018 13:16 7,2 C 11,1 C 6,1 C 83 % 1021,6 hPa 0,0 l/m 2 min 0 min 260 W/m 16,1 km/h (3 Bft) 100,00 %
11.12.2018 13:14 7,2 C 11,1 C 6,1 C 83 % 1021,6 hPa 0,0 l/m 2 min 0 min 231 W/m 16,1 km/h (3 Bft) 100,00 %
11.12.2018 13:12 7,1 C 10,6 C 6,1 C 83 % 1021,6 hPa 0,0 l/m 2 min 0 min 251 W/m 12,9 km/h (3 Bft) 100,00 %
11.12.2018 13:10 7,1 C 9,4 C 6,1 C 83 % 1021,6 hPa 0,0 l/m 2 min 0 min 201 W/m 16,1 km/h (3 Bft) 100,00 %
11.12.2018 13:08 7,1 C 8,9 C 5,6 C 83 % 1021,6 hPa 0,0 l/m 2 min 0 min 194 W/m 16,1 km/h (3 Bft) 100,00 %
11.12.2018 13:06 7,2 C 9,4 C 5,6 C 83 % 1021,6 hPa 0,0 l/m 2 min 0 min 186 W/m 16,1 km/h (3 Bft) 100,00 %
11.12.2018 13:04 7,2 C 8,9 C 5,6 C 83 % 1021,6 hPa 0,0 l/m 2 min 0 min 167 W/m 12,9 km/h (3 Bft) 97,87 %
11.12.2018 13:02 7,2 C 9,4 C 5,6 C 83 % 1021,7 hPa 0,0 l/m 2 min 0 min 185 W/m 16,1 km/h (3 Bft) 100,00 %
11.12.2018 13:00 7,2 C 9,4 C 5,6 C 83 % 1021,6 hPa 0,0 l/m 2 min 0 min 207 W/m 12,9 km/h (3 Bft) 100,00 %
11.12.2018 12:58 7,2 C 9,4 C 5,6 C 83 % 1021,6 hPa 0,0 l/m 2 min 0 min 222 W/m 12,9 km/h (3 Bft) 97,87 %
11.12.2018 12:56 7,2 C 9,4 C 5,6 C 83 % 1021,6 hPa 0,0 l/m 2 min 0 min 210 W/m 12,9 km/h (3 Bft) 100,00 %
11.12.2018 12:54 7,3 C 9,4 C 5,6 C 83 % 1021,6 hPa 0,0 l/m 2 min 0 min 183 W/m 9,7 km/h (2 Bft) 97,87 %
11.12.2018 12:52 7,3 C 9,4 C 5,0 C 83 % 1021,7 hPa 0,0 l/m 0 min 0 min 139 W/m 9,7 km/h (2 Bft) 97,87 %
11.12.2018 12:50 7,3 C 10,0 C 5,0 C 83 % 1021,7 hPa 0,0 l/m 0 min 0 min 150 W/m 9,7 km/h (2 Bft) 100,00 %
11.12.2018 12:48 7,4 C 10,6 C 5,0 C 83 % 1021,7 hPa 0,0 l/m 2 min 0 min 166 W/m 9,7 km/h (2 Bft) 100,00 %
11.12.2018 12:46 7,4 C 11,7 C 5,6 C 84 % 1021,7 hPa 0,0 l/m 2 min 0 min 153 W/m 9,7 km/h (2 Bft) 93,62 %
11.12.2018 12:44 7,4 C 12,8 C 5,6 C 84 % 1021,7 hPa 0,0 l/m 2 min 0 min 236 W/m 12,9 km/h (3 Bft) 100,00 %
11.12.2018 12:42 7,3 C 14,4 C 5,6 C 84 % 1021,7 hPa 0,0 l/m 2 min 0 min 302 W/m 16,1 km/h (3 Bft) 100,00 %
11.12.2018 12:40 7,2 C 15,0 C 5,6 C 84 % 1021,7 hPa 0,0 l/m 2 min 0 min 311 W/m 9,7 km/h (2 Bft) 97,87 %
11.12.2018 12:38 7,2 C 14,4 C 5,6 C 84 % 1021,8 hPa 0,0 l/m 2 min 0 min 314 W/m 12,9 km/h (3 Bft) 93,62 %
11.12.2018 12:36 7,1 C 14,4 C 5,6 C 84 % 1021,8 hPa 0,0 l/m 2 min 0 min 307 W/m 16,1 km/h (3 Bft) 89,13 %
11.12.2018 12:34 7,1 C 13,9 C 5,6 C 84 % 1021,8 hPa 0,0 l/m 2 min 0 min 295 W/m 12,9 km/h (3 Bft) 95,74 %
11.12.2018 12:32 7,0 C 12,2 C 5,6 C 84 % 1021,8 hPa 0,0 l/m 2 min 0 min 286 W/m 9,7 km/h (2 Bft) 93,62 %
11.12.2018 12:30 7,0 C 12,2 C 5,6 C 85 % 1021,8 hPa 0,0 l/m 2 min 0 min 284 W/m 16,1 km/h (3 Bft) 95,74 %
11.12.2018 12:28 7,0 C 12,2 C 6,1 C 85 % 1021,9 hPa 0,0 l/m 2 min 0 min 246 W/m 19,3 km/h (3 Bft) 95,74 %
11.12.2018 12:26 6,9 C 13,3 C 7,2 C 86 % 1021,9 hPa 0,0 l/m 2 min 0 min 275 W/m 9,7 km/h (2 Bft) 95,74 %
11.12.2018 12:24 6,9 C 13,3 C 7,8 C 86 % 1021,9 hPa 0,0 l/m 2 min 0 min 284 W/m 9,7 km/h (2 Bft) 95,65 %
11.12.2018 12:22 6,8 C 13,3 C 8,3 C 86 % 1021,9 hPa 0,0 l/m 2 min 0 min 282 W/m 9,7 km/h (2 Bft) 95,74 %
11.12.2018 12:20 6,8 C 13,9 C 7,8 C 87 % 1021,9 hPa 0,0 l/m 2 min 0 min 280 W/m 16,1 km/h (3 Bft) 91,49 %
11.12.2018 12:18 6,7 C 13,9 C 7,2 C 87 % 1021,8 hPa 0,0 l/m 2 min 0 min 277 W/m 9,7 km/h (2 Bft) 95,74 %
11.12.2018 12:16 6,6 C 13,3 C 6,1 C 87 % 1021,9 hPa 0,0 l/m 2 min 0 min 270 W/m 12,9 km/h (3 Bft) 95,74 %
11.12.2018 12:14 6,6 C 13,9 C 5,6 C 88 % 1021,9 hPa 0,0 l/m 2 min 0 min 271 W/m 16,1 km/h (3 Bft) 95,74 %
11.12.2018 12:12 6,4 C 12,8 C 5,6 C 88 % 1021,9 hPa 0,0 l/m 2 min 0 min 268 W/m 12,9 km/h (3 Bft) 95,65 %
11.12.2018 12:10 6,4 C 12,8 C 5,0 C 88 % 1022,0 hPa 0,0 l/m 2 min 0 min 267 W/m 6,4 km/h (2 Bft) 95,74 %
11.12.2018 12:08 6,3 C 12,8 C 5,0 C 88 % 1021,9 hPa 0,0 l/m 4 min 0 min 267 W/m 12,9 km/h (3 Bft) 98,94 %
11.12.2018 12:04 6,1 C 12,8 C 5,0 C 89 % 1021,9 hPa 0,0 l/m 2 min 0 min 268 W/m 9,7 km/h (2 Bft) 100,00 %
11.12.2018 12:02 6,0 C 11,7 C 4,4 C 89 % 1021,9 hPa 0,0 l/m 2 min 0 min 265 W/m 9,7 km/h (2 Bft) 97,87 %
11.12.2018 12:00 5,9 C 11,7 C 4,4 C 89 % 1021,9 hPa 0,0 l/m 2 min 0 min 262 W/m 9,7 km/h (2 Bft) 100,00 %
11.12.2018 11:58 5,9 C 11,1 C 4,4 C 89 % 1021,9 hPa 0,0 l/m 2 min 0 min 266 W/m 12,9 km/h (3 Bft) 100,00 %
11.12.2018 11:56 5,8 C 11,1 C 4,4 C 89 % 1021,9 hPa 0,0 l/m 2 min 0 min 267 W/m 12,9 km/h (3 Bft) 100,00 %
11.12.2018 11:54 5,7 C 12,8 C 4,4 C 90 % 1022,0 hPa 0,0 l/m 2 min 0 min 266 W/m 9,7 km/h (2 Bft) 95,74 %
11.12.2018 11:52 5,7 C 12,2 C 4,4 C 90 % 1022,0 hPa 0,0 l/m 2 min 0 min 268 W/m 12,9 km/h (3 Bft) 100,00 %
11.12.2018 11:50 5,6 C 11,7 C 4,4 C 90 % 1022,0 hPa 0,0 l/m 2 min 0 min 265 W/m 9,7 km/h (2 Bft) 100,00 %
11.12.2018 11:48 5,5 C 11,1 C 4,4 C 90 % 1022,0 hPa 0,0 l/m 2 min 0 min 262 W/m 9,7 km/h (2 Bft) 100,00 %
11.12.2018 11:46 5,4 C 10,6 C 4,4 C 90 % 1022,0 hPa 0,0 l/m 2 min 0 min 249 W/m 12,9 km/h (3 Bft) 100,00 %
11.12.2018 11:44 5,4 C 10,6 C 4,4 C 90 % 1022,0 hPa 0,0 l/m 2 min 0 min 241 W/m 16,1 km/h (3 Bft) 100,00 %
11.12.2018 11:42 5,3 C 10,6 C 4,4 C 91 % 1022,0 hPa 0,0 l/m 2 min 0 min 234 W/m 12,9 km/h (3 Bft) 100,00 %
11.12.2018 11:40 5,2 C 10,0 C 3,9 C 91 % 1022,0 hPa 0,0 l/m 2 min 0 min 211 W/m 9,7 km/h (2 Bft) 97,87 %
11.12.2018 11:38 5,2 C 8,9 C 3,9 C 91 % 1022,0 hPa 0,0 l/m 2 min 0 min 199 W/m 12,9 km/h (3 Bft) 100,00 %
11.12.2018 11:36 5,1 C 8,9 C 3,9 C 91 % 1022,0 hPa 0,0 l/m 2 min 0 min 165 W/m 12,9 km/h (3 Bft) 100,00 %
11.12.2018 11:34 5,1 C 9,4 C 3,9 C 91 % 1022,1 hPa 0,0 l/m 2 min 0 min 218 W/m 12,9 km/h (3 Bft) 100,00 %
11.12.2018 11:32 5,1 C 8,9 C 3,9 C 92 % 1022,0 hPa 0,0 l/m 2 min 0 min 163 W/m 9,7 km/h (2 Bft) 100,00 %
11.12.2018 11:30 5,0 C 9,4 C 3,9 C 92 % 1022,0 hPa 0,0 l/m 2 min 0 min 215 W/m 9,7 km/h (2 Bft) 100,00 %
11.12.2018 11:28 4,9 C 7,8 C 3,9 C 92 % 1022,1 hPa 0,0 l/m 2 min 0 min 152 W/m 16,1 km/h (3 Bft) 100,00 %
11.12.2018 11:26 4,9 C 8,3 C 3,9 C 92 % 1022,0 hPa 0,0 l/m 2 min 0 min 213 W/m 25,7 km/h (4 Bft) 97,83 %
11.12.2018 11:24 4,9 C 7,2 C 3,9 C 92 % 1022,0 hPa 0,0 l/m 0 min 0 min 111 W/m 6,4 km/h (2 Bft) 100,00 %
11.12.2018 11:22 4,9 C 6,1 C 3,9 C 93 % 1022,0 hPa 0,0 l/m 0 min 0 min 94 W/m 16,1 km/h (3 Bft) 100,00 %
11.12.2018 11:20 4,9 C 5,6 C 3,9 C 93 % 1022,0 hPa 0,0 l/m 0 min 0 min 73 W/m 12,9 km/h (3 Bft) 100,00 %
11.12.2018 11:18 4,9 C 6,1 C 3,9 C 93 % 1022,0 hPa 0,0 l/m 0 min 0 min 69 W/m 16,1 km/h (3 Bft) 100,00 %
11.12.2018 11:16 4,8 C 6,7 C 3,9 C 94 % 1021,9 hPa 0,0 l/m 0 min 0 min 77 W/m 12,9 km/h (3 Bft) 100,00 %
11.12.2018 11:14 4,8 C 7,2 C 3,9 C 94 % 1022,0 hPa 0,0 l/m 0 min 0 min 90 W/m 12,9 km/h (3 Bft) 100,00 %
11.12.2018 11:12 4,7 C 8,3 C 4,4 C 94 % 1022,0 hPa 0,0 l/m 0 min 0 min 104 W/m 9,7 km/h (2 Bft) 100,00 %
11.12.2018 11:10 4,7 C 9,4 C 4,4 C 94 % 1022,1 hPa 0,0 l/m 2 min 0 min 193 W/m 19,3 km/h (3 Bft) 100,00 %
11.12.2018 11:08 4,6 C 11,1 C 4,4 C 94 % 1022,0 hPa 0,0 l/m 2 min 0 min 296 W/m 12,9 km/h (3 Bft) 100,00 %
11.12.2018 11:06 4,4 C 11,1 C 3,9 C 94 % 1022,1 hPa 0,0 l/m 2 min 0 min 247 W/m 12,9 km/h (3 Bft) 100,00 %
11.12.2018 11:04 4,3 C 10,0 C 3,9 C 95 % 1022,0 hPa 0,0 l/m 2 min 0 min 222 W/m 9,7 km/h (2 Bft) 100,00 %
11.12.2018 11:02 4,2 C 9,4 C 3,3 C 95 % 1022,0 hPa 0,0 l/m 2 min 0 min 205 W/m 9,7 km/h (2 Bft) 100,00 %
11.12.2018 11:00 4,1 C 7,8 C 3,3 C 95 % 1022,0 hPa 0,0 l/m 2 min 0 min 132 W/m 9,7 km/h (2 Bft) 95,74 %
11.12.2018 10:58 4,1 C 6,7 C 3,3 C 95 % 1022,0 hPa 0,0 l/m 2 min 0 min 139 W/m 9,7 km/h (2 Bft) 97,87 %
11.12.2018 10:56 3,9 C 7,2 C 3,3 C 95 % 1022,0 hPa 0,0 l/m 2 min 0 min 144 W/m 6,4 km/h (2 Bft) 97,87 %
11.12.2018 10:54 3,9 C 7,2 C 2,8 C 95 % 1022,0 hPa 0,0 l/m 2 min 0 min 128 W/m 12,9 km/h (3 Bft) 97,87 %
11.12.2018 10:52 3,8 C 6,7 C 2,8 C 95 % 1022,0 hPa 0,0 l/m 2 min 0 min 132 W/m 12,9 km/h (3 Bft) 97,83 %
11.12.2018 10:50 3,8 C 5,6 C 2,8 C 95 % 1021,9 hPa 0,0 l/m 0 min 0 min 91 W/m 12,9 km/h (3 Bft) 97,87 %
11.12.2018 10:48 3,7 C 5,0 C 2,8 C 95 % 1021,9 hPa 0,0 l/m 0 min 0 min 74 W/m 12,9 km/h (3 Bft) 95,74 %
11.12.2018 10:46 3,7 C 5,0 C 2,8 C 95 % 1021,9 hPa 0,0 l/m 0 min 0 min 51 W/m 9,7 km/h (2 Bft) 97,87 %
11.12.2018 10:44 3,7 C 5,6 C 2,8 C 95 % 1021,9 hPa 0,0 l/m 0 min 0 min 43 W/m 6,4 km/h (2 Bft) 97,87 %
11.12.2018 10:42 3,7 C 6,1 C 2,8 C 95 % 1021,9 hPa 0,0 l/m 0 min 0 min 67 W/m 9,7 km/h (2 Bft) 97,87 %
11.12.2018 10:40 3,6 C 7,2 C 2,8 C 95 % 1021,9 hPa 0,0 l/m 0 min 0 min 114 W/m 6,4 km/h (2 Bft) 95,65 %
11.12.2018 10:38 3,5 C 6,1 C 2,8 C 95 % 1021,9 hPa 0,0 l/m 0 min 0 min 87 W/m 9,7 km/h (2 Bft) 95,74 %
11.12.2018 10:36 3,4 C 7,2 C 2,8 C 95 % 1021,9 hPa 0,0 l/m 0 min 0 min 104 W/m 12,9 km/h (3 Bft) 91,67 %
11.12.2018 10:34 3,3 C 8,9 C 2,8 C 95 % 1021,9 hPa 0,0 l/m 2 min 0 min 183 W/m 9,7 km/h (2 Bft) 93,62 %
11.12.2018 10:32 3,2 C 9,4 C 2,8 C 95 % 1021,8 hPa 0,0 l/m 2 min 0 min 153 W/m 12,9 km/h (3 Bft) 93,62 %
11.12.2018 10:30 3,2 C 8,9 C 2,2 C 95 % 1021,9 hPa 0,0 l/m 2 min 0 min 161 W/m 12,9 km/h (3 Bft) 91,49 %
11.12.2018 10:28 3,1 C 8,9 C 2,2 C 95 % 1021,8 hPa 0,0 l/m 2 min 0 min 168 W/m 9,7 km/h (2 Bft) 91,30 %
11.12.2018 10:26 3,0 C 7,8 C 2,2 C 95 % 1021,7 hPa 0,0 l/m 2 min 0 min 162 W/m 9,7 km/h (2 Bft) 89,36 %
11.12.2018 10:24 2,9 C 7,2 C 2,2 C 95 % 1021,7 hPa 0,0 l/m 2 min 0 min 166 W/m 6,4 km/h (2 Bft) 93,62 %
11.12.2018 10:22 2,9 C 6,1 C 2,2 C 95 % 1021,8 hPa 0,0 l/m 2 min 0 min 131 W/m 12,9 km/h (3 Bft) 93,62 %
11.12.2018 10:20 2,9 C 5,0 C 2,2 C 95 % 1021,7 hPa 0,0 l/m 2 min 0 min 129 W/m 6,4 km/h (2 Bft) 93,62 %
11.12.2018 10:18 2,9 C 3,9 C 1,7 C 95 % 1021,7 hPa 0,0 l/m 0 min 0 min 57 W/m 9,7 km/h (2 Bft) 91,49 %
11.12.2018 10:16 2,9 C 3,3 C 1,7 C 95 % 1021,7 hPa 0,0 l/m 0 min 0 min 52 W/m 6,4 km/h (2 Bft) 93,48 %
11.12.2018 10:14 2,9 C 2,8 C 1,7 C 95 % 1021,6 hPa 0,0 l/m 0 min 0 min 28 W/m 6,4 km/h (2 Bft) 93,62 %
11.12.2018 10:12 2,9 C 2,8 C 1,7 C 95 % 1021,7 hPa 0,0 l/m 0 min 0 min 27 W/m 6,4 km/h (2 Bft) 93,62 %
11.12.2018 10:10 2,9 C 2,8 C 1,7 C 95 % 1021,7 hPa 0,0 l/m 0 min 0 min 28 W/m 6,4 km/h (2 Bft) 93,62 %
11.12.2018 10:08 2,9 C 3,3 C 2,2 C 95 % 1021,7 hPa 0,0 l/m 0 min 0 min 30 W/m 9,7 km/h (2 Bft) 93,62 %
11.12.2018 10:06 2,9 C 3,3 C 2,2 C 95 % 1021,7 hPa 0,0 l/m 0 min 0 min 37 W/m 12,9 km/h (3 Bft) 93,48 %
11.12.2018 10:04 2,9 C 3,3 C 2,2 C 95 % 1021,8 hPa 0,0 l/m 0 min 0 min 36 W/m 6,4 km/h (2 Bft) 93,62 %
11.12.2018 10:02 2,9 C 3,3 C 2,2 C 95 % 1021,8 hPa 0,0 l/m 0 min 0 min 37 W/m 6,4 km/h (2 Bft) 93,62 %
11.12.2018 10:00 2,8 C 3,3 C 2,2 C 95 % 1021,7 hPa 0,0 l/m 0 min 0 min 40 W/m 6,4 km/h (2 Bft) 93,62 %
11.12.2018 09:58 2,8 C 3,3 C 2,2 C 95 % 1021,7 hPa 0,0 l/m 0 min 0 min 40 W/m 6,4 km/h (2 Bft) 93,62 %
11.12.2018 09:56 2,8 C 3,3 C 2,2 C 95 % 1021,7 hPa 0,0 l/m 0 min 0 min 35 W/m 6,4 km/h (2 Bft) 97,87 %
11.12.2018 09:54 2,8 C 3,3 C 2,2 C 95 % 1021,7 hPa 0,0 l/m 0 min 0 min 30 W/m 9,7 km/h (2 Bft) 97,83 %
11.12.2018 09:52 2,8 C 3,3 C 2,2 C 95 % 1021,7 hPa 0,0 l/m 0 min 0 min 35 W/m 9,7 km/h (2 Bft) 97,87 %
11.12.2018 09:50 2,7 C 3,3 C 2,2 C 95 % 1021,6 hPa 0,0 l/m 0 min 0 min 45 W/m 6,4 km/h (2 Bft) 93,62 %
11.12.2018 09:48 2,7 C 3,3 C 2,2 C 95 % 1021,6 hPa 0,0 l/m 0 min 0 min 49 W/m 6,4 km/h (2 Bft) 97,87 %
11.12.2018 09:46 2,7 C 3,3 C 2,2 C 95 % 1021,6 hPa 0,0 l/m 0 min 0 min 49 W/m 9,7 km/h (2 Bft) 97,87 %
11.12.2018 09:44 2,6 C 3,3 C 2,2 C 95 % 1021,5 hPa 0,0 l/m 0 min 0 min 54 W/m 6,4 km/h (2 Bft) 100,00 %
11.12.2018 09:42 2,6 C 3,3 C 2,2 C 95 % 1021,4 hPa 0,0 l/m 0 min 0 min 69 W/m 6,4 km/h (2 Bft) 100,00 %
11.12.2018 09:40 2,6 C 3,3 C 2,2 C 95 % 1021,5 hPa 0,0 l/m 2 min 0 min 80 W/m 9,7 km/h (2 Bft) 97,87 %
11.12.2018 09:38 2,5 C 3,3 C 2,2 C 95 % 1021,5 hPa 0,0 l/m 2 min 0 min 80 W/m 9,7 km/h (2 Bft) 100,00 %
11.12.2018 09:36 2,5 C 3,3 C 2,2 C 95 % 1021,5 hPa 0,0 l/m 0 min 0 min 62 W/m 9,7 km/h (2 Bft) 100,00 %
11.12.2018 09:34 2,4 C 2,8 C 1,7 C 95 % 1021,6 hPa 0,0 l/m 0 min 0 min 48 W/m 6,4 km/h (2 Bft) 100,00 %
11.12.2018 09:32 2,4 C 2,8 C 1,7 C 95 % 1021,6 hPa 0,0 l/m 0 min 0 min 46 W/m 6,4 km/h (2 Bft) 100,00 %
11.12.2018 09:30 2,3 C 2,8 C 1,7 C 95 % 1021,6 hPa 0,0 l/m 0 min 0 min 46 W/m 9,7 km/h (2 Bft) 100,00 %
11.12.2018 09:28 2,3 C 2,8 C 1,7 C 95 % 1021,6 hPa 0,0 l/m 0 min 0 min 46 W/m 12,9 km/h (3 Bft) 100,00 %
11.12.2018 09:26 2,3 C 2,8 C 1,7 C 95 % 1021,6 hPa 0,0 l/m 0 min 0 min 47 W/m 12,9 km/h (3 Bft) 100,00 %
11.12.2018 09:24 2,3 C 2,8 C 1,7 C 95 % 1021,6 hPa 0,0 l/m 0 min 0 min 46 W/m 9,7 km/h (2 Bft) 100,00 %
11.12.2018 09:22 2,2 C 2,2 C 1,7 C 95 % 1021,6 hPa 0,0 l/m 0 min 0 min 41 W/m 3,2 km/h (1 Bft) 97,87 %
11.12.2018 09:20 2,2 C 2,2 C 1,7 C 95 % 1021,6 hPa 0,0 l/m 0 min 0 min 35 W/m 6,4 km/h (2 Bft) 100,00 %
11.12.2018 09:18 2,2 C 2,2 C 1,1 C 95 % 1021,5 hPa 0,0 l/m 0 min 0 min 30 W/m 6,4 km/h (2 Bft) 100,00 %
11.12.2018 09:16 2,2 C 1,7 C 1,1 C 95 % 1021,5 hPa 0,0 l/m 0 min 0 min 25 W/m 6,4 km/h (2 Bft) 97,87 %
11.12.2018 09:14 2,2 C 1,7 C 1,1 C 95 % 1021,5 hPa 0,0 l/m 0 min 0 min 22 W/m 3,2 km/h (1 Bft) 97,87 %
11.12.2018 09:12 2,2 C 1,7 C 1,1 C 95 % 1021,6 hPa 0,0 l/m 0 min 0 min 21 W/m 12,9 km/h (3 Bft) 100,00 %
11.12.2018 09:10 2,2 C 1,7 C 1,1 C 95 % 1021,6 hPa 0,0 l/m 0 min 0 min 20 W/m 6,4 km/h (2 Bft) 100,00 %
11.12.2018 09:08 2,2 C 1,7 C 1,1 C 95 % 1021,6 hPa 0,0 l/m 0 min 0 min 19 W/m 6,4 km/h (2 Bft) 100,00 %
11.12.2018 09:06 2,3 C 1,7 C 1,1 C 94 % 1021,6 hPa 0,0 l/m 0 min 0 min 18 W/m 6,4 km/h (2 Bft) 100,00 %
11.12.2018 09:04 2,3 C 1,7 C 1,1 C 94 % 1021,6 hPa 0,0 l/m 0 min 0 min 17 W/m 6,4 km/h (2 Bft) 100,00 %
11.12.2018 09:02 2,3 C 1,7 C 1,1 C 94 % 1021,6 hPa 0,0 l/m 0 min 0 min 16 W/m 12,9 km/h (3 Bft) 100,00 %
11.12.2018 09:00 2,3 C 1,7 C 1,1 C 94 % 1021,5 hPa 0,0 l/m 0 min 0 min 14 W/m 6,4 km/h (2 Bft) 100,00 %
11.12.2018 08:58 2,3 C 1,7 C 1,1 C 94 % 1021,6 hPa 0,0 l/m 0 min 0 min 14 W/m 3,2 km/h (1 Bft) 100,00 %
11.12.2018 08:56 2,4 C 1,7 C 1,1 C 94 % 1021,6 hPa 0,0 l/m 0 min 0 min 13 W/m 3,2 km/h (1 Bft) 100,00 %
11.12.2018 08:54 2,4 C 1,7 C 1,1 C 94 % 1021,6 hPa 0,0 l/m 0 min 0 min 12 W/m 6,4 km/h (2 Bft) 97,87 %
11.12.2018 08:52 2,4 C 1,7 C 1,1 C 94 % 1021,5 hPa 0,0 l/m 0 min 0 min 11 W/m 6,4 km/h (2 Bft) 97,87 %
11.12.2018 08:50 2,4 C 1,7 C 1,1 C 94 % 1021,5 hPa 0,0 l/m 0 min 0 min 11 W/m 6,4 km/h (2 Bft) 100,00 %
11.12.2018 08:48 2,5 C 1,7 C 1,1 C 95 % 1021,6 hPa 0,0 l/m 0 min 0 min 11 W/m 9,7 km/h (2 Bft) 100,00 %
11.12.2018 08:46 2,5 C 1,7 C 1,1 C 95 % 1021,5 hPa 0,0 l/m 0 min 0 min 9 W/m 9,7 km/h (2 Bft) 100,00 %
11.12.2018 08:44 2,6 C 1,7 C 1,1 C 95 % 1021,5 hPa 0,0 l/m 0 min 0 min 8 W/m 6,4 km/h (2 Bft) 100,00 %
11.12.2018 08:42 2,6 C 1,7 C 1,1 C 95 % 1021,5 hPa 0,0 l/m 0 min 0 min 7 W/m 6,4 km/h (2 Bft) 100,00 %
11.12.2018 08:40 2,6 C 1,7 C 1,1 C 95 % 1021,5 hPa 0,0 l/m 0 min 0 min 7 W/m 9,7 km/h (2 Bft) 100,00 %
11.12.2018 08:38 2,7 C 1,7 C 1,1 C 95 % 1021,5 hPa 0,0 l/m 0 min 0 min 6 W/m 12,9 km/h (3 Bft) 100,00 %
11.12.2018 08:36 2,7 C 1,7 C 1,1 C 94 % 1021,5 hPa 0,0 l/m 0 min 0 min 5 W/m 6,4 km/h (2 Bft) 97,87 %
11.12.2018 08:34 2,7 C 1,7 C 1,1 C 94 % 1021,4 hPa 0,0 l/m 0 min 0 min 5 W/m 6,4 km/h (2 Bft) 100,00 %
11.12.2018 08:32 2,8 C 1,7 C 1,1 C 95 % 1021,6 hPa 0,0 l/m 0 min 0 min 5 W/m 9,7 km/h (2 Bft) 93,48 %
11.12.2018 08:30 2,8 C 1,7 C 1,1 C 95 % 1021,6 hPa 0,0 l/m 0 min 0 min 3 W/m 3,2 km/h (1 Bft) 100,00 %
11.12.2018 08:28 2,8 C 1,7 C 1,1 C 95 % 1021,5 hPa 0,0 l/m 0 min 0 min 0 W/m 6,4 km/h (2 Bft) 100,00 %
11.12.2018 08:26 2,8 C 1,7 C 1,7 C 95 % 1021,5 hPa 0,0 l/m 0 min 0 min 0 W/m 6,4 km/h (2 Bft) 100,00 %
11.12.2018 08:24 2,9 C 2,2 C 1,7 C 95 % 1021,5 hPa 0,0 l/m 0 min 0 min 0 W/m 9,7 km/h (2 Bft) 100,00 %
11.12.2018 08:22 2,9 C 2,2 C 1,7 C 95 % 1021,5 hPa 0,0 l/m 0 min 0 min 0 W/m 6,4 km/h (2 Bft) 97,87 %
11.12.2018 08:20 2,9 C 2,2 C 1,7 C 95 % 1021,4 hPa 0,0 l/m 0 min 0 min 0 W/m 9,7 km/h (2 Bft) 97,83 %
11.12.2018 08:18 2,9 C 2,2 C 1,7 C 95 % 1021,6 hPa 0,0 l/m 0 min 0 min 0 W/m 9,7 km/h (2 Bft) 93,62 %
11.12.2018 08:16 3,0 C 2,2 C 1,7 C 95 % 1021,6 hPa 0,0 l/m 0 min 0 min 0 W/m 6,4 km/h (2 Bft) 97,87 %
11.12.2018 08:14 3,0 C 2,2 C 1,7 C 95 % 1021,5 hPa 0,0 l/m 0 min 0 min 0 W/m 6,4 km/h (2 Bft) 93,62 %
11.12.2018 08:12 3,1 C 2,2 C 1,7 C 95 % 1021,5 hPa 0,0 l/m 0 min 0 min 0 W/m 12,9 km/h (3 Bft) 97,87 %
11.12.2018 08:10 3,1 C 2,2 C 1,7 C 95 % 1021,5 hPa 0,0 l/m 0 min 0 min 0 W/m 6,4 km/h (2 Bft) 95,74 %
11.12.2018 08:08 3,1 C 2,2 C 1,7 C 95 % 1021,5 hPa 0,0 l/m 0 min 0 min 0 W/m 6,4 km/h (2 Bft) 95,65 %
11.12.2018 08:06 3,1 C 2,2 C 1,7 C 95 % 1021,5 hPa 0,0 l/m 0 min 0 min 0 W/m 6,4 km/h (2 Bft) 95,74 %
11.12.2018 08:04 3,1 C 2,2 C 1,7 C 95 % 1021,5 hPa 0,0 l/m 0 min 0 min 0 W/m 6,4 km/h (2 Bft) 95,74 %
11.12.2018 08:02 3,1 C 2,2 C 2,2 C 95 % 1021,4 hPa 0,0 l/m 0 min 0 min 0 W/m 6,4 km/h (2 Bft) 91,49 %
11.12.2018 08:00 3,1 C 2,2 C 1,7 C 95 % 1021,5 hPa 0,0 l/m 0 min 0 min 0 W/m 6,4 km/h (2 Bft) 93,62 %
11.12.2018 07:58 3,2 C 2,2 C 1,7 C 95 % 1021,4 hPa 0,0 l/m 0 min 0 min 0 W/m 6,4 km/h (2 Bft) 89,36 %
11.12.2018 07:56 3,2 C 2,2 C 2,2 C 95 % 1021,5 hPa 0,0 l/m 0 min 0 min 0 W/m 6,4 km/h (2 Bft) 95,65 %
11.12.2018 07:54 3,2 C 2,2 C 2,2 C 95 % 1021,5 hPa 0,0 l/m 0 min 0 min 0 W/m 9,7 km/h (2 Bft) 93,62 %
11.12.2018 07:52 3,2 C 2,2 C 2,2 C 95 % 1021,5 hPa 0,0 l/m 0 min 0 min 0 W/m 9,7 km/h (2 Bft) 95,74 %
11.12.2018 07:50 3,2 C 2,2 C 2,2 C 95 % 1021,5 hPa 0,0 l/m 0 min 0 min 0 W/m 9,7 km/h (2 Bft) 95,74 %
11.12.2018 07:48 3,2 C 2,8 C 2,2 C 95 % 1021,5 hPa 0,0 l/m 0 min 0 min 0 W/m 9,7 km/h (2 Bft) 95,74 %
11.12.2018 07:46 3,2 C 2,8 C 2,2 C 95 % 1021,5 hPa 0,0 l/m 0 min 0 min 0 W/m 9,7 km/h (2 Bft) 95,65 %
11.12.2018 07:44 3,2 C 2,8 C 2,2 C 95 % 1021,5 hPa 0,0 l/m 0 min 2 min 0 W/m 12,9 km/h (3 Bft) 93,62 %
11.12.2018 07:42 3,2 C 2,8 C 2,2 C 95 % 1021,5 hPa 0,0 l/m 0 min 0 min 0 W/m 9,7 km/h (2 Bft) 95,74 %
11.12.2018 07:40 3,2 C 2,8 C 2,2 C 95 % 1021,4 hPa 0,0 l/m 0 min 0 min 0 W/m 9,7 km/h (2 Bft) 95,74 %
11.12.2018 07:38 3,2 C 2,8 C 2,2 C 95 % 1021,5 hPa 0,0 l/m 0 min 2 min 0 W/m 12,9 km/h (3 Bft) 97,87 %
11.12.2018 07:36 3,2 C 2,8 C 2,2 C 95 % 1021,4 hPa 0,0 l/m 0 min 2 min 0 W/m 9,7 km/h (2 Bft) 97,87 %
11.12.2018 07:34 3,2 C 2,8 C 2,2 C 95 % 1021,3 hPa 0,0 l/m 0 min 0 min 0 W/m 12,9 km/h (3 Bft) 95,65 %
11.12.2018 07:32 3,2 C 2,8 C 2,2 C 95 % 1021,3 hPa 0,0 l/m 0 min 0 min 0 W/m 9,7 km/h (2 Bft) 97,87 %
11.12.2018 07:30 3,2 C 2,8 C 2,2 C 95 % 1021,3 hPa 0,0 l/m 0 min 0 min 0 W/m 6,4 km/h (2 Bft) 95,74 %
11.12.2018 07:28 3,1 C 2,8 C 2,2 C 95 % 1021,4 hPa 0,0 l/m 0 min 2 min 0 W/m 6,4 km/h (2 Bft) 97,87 %
11.12.2018 07:26 3,1 C 2,8 C 2,2 C 95 % 1021,4 hPa 0,0 l/m 0 min 2 min 0 W/m 16,1 km/h (3 Bft) 95,74 %
11.12.2018 07:24 3,1 C 2,8 C 2,2 C 95 % 1021,4 hPa 0,0 l/m 0 min 0 min 0 W/m 9,7 km/h (2 Bft) 95,74 %
11.12.2018 07:22 3,0 C 2,8 C 2,2 C 95 % 1021,5 hPa 0,0 l/m 0 min 0 min 0 W/m 9,7 km/h (2 Bft) 93,48 %
11.12.2018 07:20 3,0 C 2,8 C 2,2 C 95 % 1021,5 hPa 0,0 l/m 0 min 0 min 0 W/m 9,7 km/h (2 Bft) 97,87 %
11.12.2018 07:18 3,0 C 2,8 C 2,2 C 95 % 1021,5 hPa 0,0 l/m 0 min 0 min 0 W/m 12,9 km/h (3 Bft) 97,87 %
11.12.2018 07:16 2,9 C 2,8 C 2,2 C 95 % 1021,5 hPa 0,0 l/m 0 min 0 min 0 W/m 9,7 km/h (2 Bft) 95,74 %
11.12.2018 07:14 2,9 C 2,8 C 2,2 C 95 % 1021,5 hPa 0,0 l/m 0 min 0 min 0 W/m 16,1 km/h (3 Bft) 97,87 %
11.12.2018 07:12 2,9 C 2,8 C 2,2 C 95 % 1021,5 hPa 0,0 l/m 0 min 0 min 0 W/m 9,7 km/h (2 Bft) 97,87 %
11.12.2018 07:10 2,9 C 2,8 C 2,2 C 95 % 1021,4 hPa 0,0 l/m 0 min 0 min 0 W/m 12,9 km/h (3 Bft) 100,00 %
11.12.2018 07:08 2,9 C 2,2 C 1,7 C 95 % 1021,4 hPa 0,0 l/m 0 min 0 min 0 W/m 12,9 km/h (3 Bft) 100,00 %
11.12.2018 07:06 2,9 C 2,2 C 1,7 C 95 % 1021,4 hPa 0,0 l/m 0 min 0 min 0 W/m 9,7 km/h (2 Bft) 97,87 %
11.12.2018 07:04 2,9 C 2,2 C 1,7 C 95 % 1021,5 hPa 0,0 l/m 0 min 0 min 0 W/m 9,7 km/h (2 Bft) 95,74 %
11.12.2018 07:02 2,9 C 2,2 C 1,7 C 95 % 1021,4 hPa 0,0 l/m 0 min 0 min 0 W/m 12,9 km/h (3 Bft) 97,92 %
11.12.2018 07:00 2,9 C 2,2 C 1,7 C 95 % 1021,4 hPa 0,0 l/m 0 min 0 min 0 W/m 9,7 km/h (2 Bft) 97,87 %
11.12.2018 06:58 2,9 C 2,2 C 1,7 C 95 % 1021,3 hPa 0,0 l/m 0 min 0 min 0 W/m 9,7 km/h (2 Bft) 97,83 %
11.12.2018 06:56 2,9 C 2,2 C 1,7 C 95 % 1021,3 hPa 0,0 l/m 0 min 0 min 0 W/m 12,9 km/h (3 Bft) 97,87 %
11.12.2018 06:54 2,9 C 2,2 C 1,7 C 95 % 1021,3 hPa 0,0 l/m 0 min 0 min 0 W/m 9,7 km/h (2 Bft) 97,87 %
11.12.2018 06:52 2,9 C 2,2 C 1,7 C 95 % 1021,3 hPa 0,0 l/m 0 min 0 min 0 W/m 9,7 km/h (2 Bft) 97,87 %
11.12.2018 06:50 3,0 C 2,2 C 1,7 C 95 % 1021,3 hPa 0,0 l/m 0 min 0 min 0 W/m 9,7 km/h (2 Bft) 97,87 %
11.12.2018 06:48 3,0 C 2,2 C 1,7 C 95 % 1021,4 hPa 0,0 l/m 0 min 0 min 0 W/m 9,7 km/h (2 Bft) 97,87 %
11.12.2018 06:46 3,0 C 2,2 C 1,7 C 95 % 1021,3 hPa 0,0 l/m 0 min 0 min 0 W/m 6,4 km/h (2 Bft) 97,83 %
11.12.2018 06:44 3,1 C 2,2 C 1,7 C 95 % 1021,3 hPa 0,0 l/m 0 min 0 min 0 W/m 9,7 km/h (2 Bft) 97,87 %
11.12.2018 06:42 3,0 C 2,8 C 2,2 C 95 % 1021,3 hPa 0,0 l/m 0 min 0 min 0 W/m 12,9 km/h (3 Bft) 97,87 %
11.12.2018 06:40 3,0 C 2,8 C 2,2 C 95 % 1021,3 hPa 0,0 l/m 0 min 0 min 0 W/m 9,7 km/h (2 Bft) 95,74 %
11.12.2018 06:38 3,0 C 2,8 C 2,2 C 95 % 1021,3 hPa 0,0 l/m 0 min 0 min 0 W/m 9,7 km/h (2 Bft) 97,87 %
11.12.2018 06:36 3,0 C 2,8 C 2,2 C 95 % 1021,3 hPa 0,0 l/m 0 min 0 min 0 W/m 9,7 km/h (2 Bft) 97,83 %
11.12.2018 06:34 3,0 C 2,8 C 2,2 C 95 % 1021,3 hPa 0,0 l/m 0 min 0 min 0 W/m 6,4 km/h (2 Bft) 97,87 %
11.12.2018 06:32 3,0 C 2,8 C 2,2 C 95 % 1021,4 hPa 0,0 l/m 0 min 0 min 0 W/m 12,9 km/h (3 Bft) 95,74 %
11.12.2018 06:30 2,9 C 2,8 C 2,2 C 95 % 1021,4 hPa 0,0 l/m 0 min 0 min 0 W/m 9,7 km/h (2 Bft) 97,87 %
11.12.2018 06:28 2,9 C 2,8 C 2,2 C 95 % 1021,5 hPa 0,0 l/m 0 min 0 min 0 W/m 9,7 km/h (2 Bft) 95,74 %
11.12.2018 06:26 2,9 C 2,8 C 2,2 C 95 % 1021,5 hPa 0,0 l/m 0 min 0 min 0 W/m 16,1 km/h (3 Bft) 97,87 %
11.12.2018 06:24 2,9 C 2,8 C 2,2 C 95 % 1021,5 hPa 0,0 l/m 0 min 0 min 0 W/m 9,7 km/h (2 Bft) 97,83 %
11.12.2018 06:22 2,9 C 2,8 C 2,2 C 95 % 1021,4 hPa 0,0 l/m 0 min 0 min 0 W/m 9,7 km/h (2 Bft) 97,87 %
11.12.2018 06:20 2,9 C 2,8 C 2,2 C 95 % 1021,5 hPa 0,0 l/m 0 min 0 min 0 W/m 12,9 km/h (3 Bft) 97,87 %
11.12.2018 06:18 2,8 C 2,8 C 2,2 C 95 % 1021,4 hPa 0,0 l/m 0 min 0 min 0 W/m 16,1 km/h (3 Bft) 97,87 %
11.12.2018 06:16 2,8 C 2,8 C 2,2 C 95 % 1021,5 hPa 0,0 l/m 0 min 0 min 0 W/m 12,9 km/h (3 Bft) 97,87 %
11.12.2018 06:14 2,8 C 2,8 C 2,2 C 95 % 1021,5 hPa 0,0 l/m 0 min 0 min 0 W/m 16,1 km/h (3 Bft) 95,74 %
11.12.2018 06:12 2,7 C 2,8 C 2,2 C 95 % 1021,4 hPa 0,0 l/m 0 min 0 min 0 W/m 6,4 km/h (2 Bft) 97,83 %
11.12.2018 06:10 2,7 C 2,8 C 2,2 C 95 % 1021,5 hPa 0,0 l/m 0 min 0 min 0 W/m 9,7 km/h (2 Bft) 97,87 %
11.12.2018 06:08 2,7 C 2,8 C 2,2 C 95 % 1021,5 hPa 0,0 l/m 0 min 0 min 0 W/m 9,7 km/h (2 Bft) 97,87 %
11.12.2018 06:04 2,7 C 2,2 C 1,7 C 95 % 1021,5 hPa 0,0 l/m 0 min 0 min 0 W/m 9,7 km/h (2 Bft) 97,87 %
11.12.2018 06:02 2,6 C 2,2 C 1,7 C 95 % 1021,4 hPa 0,0 l/m 0 min 0 min 0 W/m 6,4 km/h (2 Bft) 97,87 %
11.12.2018 06:00 2,6 C 2,2 C 1,7 C 95 % 1021,4 hPa 0,0 l/m 0 min 0 min 0 W/m 6,4 km/h (2 Bft) 95,65 %
11.12.2018 05:58 2,6 C 2,2 C 1,7 C 95 % 1021,5 hPa 0,0 l/m 0 min 0 min 0 W/m 6,4 km/h (2 Bft) 97,87 %
11.12.2018 05:56 2,6 C 2,2 C 1,7 C 95 % 1021,3 hPa 0,0 l/m 0 min 0 min 0 W/m 9,7 km/h (2 Bft) 97,87 %
11.12.2018 05:54 2,5 C 2,2 C 1,7 C 95 % 1021,4 hPa 0,0 l/m 0 min 0 min 0 W/m 6,4 km/h (2 Bft) 95,74 %
11.12.2018 05:52 2,5 C 2,2 C 1,7 C 95 % 1021,4 hPa 0,0 l/m 0 min 0 min 0 W/m 9,7 km/h (2 Bft) 97,87 %
11.12.2018 05:50 2,5 C 2,2 C 1,7 C 95 % 1021,4 hPa 0,0 l/m 0 min 0 min 0 W/m 6,4 km/h (2 Bft) 97,87 %
11.12.2018 05:48 2,4 C 2,2 C 1,7 C 94 % 1021,4 hPa 0,0 l/m 0 min 0 min 0 W/m 9,7 km/h (2 Bft) 97,83 %
11.12.2018 05:46 2,4 C 2,2 C 1,7 C 94 % 1021,4 hPa 0,0 l/m 0 min 0 min 0 W/m 6,4 km/h (2 Bft) 97,87 %
11.12.2018 05:44 2,4 C 2,2 C 1,7 C 94 % 1021,4 hPa 0,0 l/m 0 min 0 min 0 W/m 6,4 km/h (2 Bft) 97,87 %
11.12.2018 05:42 2,4 C 1,7 C 1,7 C 94 % 1021,4 hPa 0,0 l/m 0 min 0 min 0 W/m 6,4 km/h (2 Bft) 97,87 %
11.12.2018 05:40 2,4 C 1,7 C 1,1 C 94 % 1021,3 hPa 0,0 l/m 0 min 0 min 0 W/m 6,4 km/h (2 Bft) 97,87 %
11.12.2018 05:38 2,4 C 1,7 C 1,1 C 94 % 1021,4 hPa 0,0 l/m 0 min 0 min 0 W/m 6,4 km/h (2 Bft) 97,22 %
11.12.2018 05:36 2,5 C 1,7 C 1,1 C 94 % 1021,4 hPa 0,0 l/m 0 min 0 min 0 W/m 6,4 km/h (2 Bft) 98,28 %
11.12.2018 05:34 2,5 C 1,7 C 1,1 C 94 % 1021,4 hPa 0,0 l/m 0 min 0 min 0 W/m 3,2 km/h (1 Bft) 97,87 %
11.12.2018 05:32 2,5 C 1,7 C 1,1 C 94 % 1021,4 hPa 0,0 l/m 0 min 0 min 0 W/m 6,4 km/h (2 Bft) 95,74 %
11.12.2018 05:30 2,5 C 1,7 C 1,1 C 94 % 1021,5 hPa 0,0 l/m 0 min 0 min 0 W/m 3,2 km/h (1 Bft) 95,74 %
11.12.2018 05:28 2,5 C 1,7 C 1,1 C 94 % 1021,4 hPa 0,0 l/m 0 min 0 min 0 W/m 6,4 km/h (2 Bft) 97,87 %
11.12.2018 05:26 2,5 C 1,7 C 1,1 C 94 % 1021,4 hPa 0,0 l/m 0 min 0 min 0 W/m 12,9 km/h (3 Bft) 95,65 %
11.12.2018 05:24 2,5 C 1,7 C 1,1 C 94 % 1021,4 hPa 0,0 l/m 0 min 0 min 0 W/m 6,4 km/h (2 Bft) 93,62 %
11.12.2018 05:22 2,5 C 1,7 C 1,1 C 94 % 1021,4 hPa 0,0 l/m 0 min 0 min 0 W/m 12,9 km/h (3 Bft) 95,74 %
11.12.2018 05:20 2,6 C 1,7 C 1,1 C 94 % 1021,4 hPa 0,0 l/m 0 min 0 min 0 W/m 3,2 km/h (1 Bft) 100,00 %
11.12.2018 05:19 2,6 C 1,7 C 1,1 C 94 % 1021,4 hPa 0,0 l/m 0 min 0 min 0 W/m 6,4 km/h (2 Bft) 100,00 %
11.12.2018 05:14 2,6 C 1,7 C 1,1 C 94 % 1021,4 hPa 0,0 l/m 0 min 0 min 0 W/m 6,4 km/h (2 Bft) 95,65 %
11.12.2018 05:12 2,6 C 1,7 C 1,1 C 94 % 1021,3 hPa 0,0 l/m 0 min 0 min 0 W/m 9,7 km/h (2 Bft) 97,87 %
11.12.2018 05:10 2,6 C 1,7 C 1,1 C 94 % 1021,3 hPa 0,0 l/m 0 min 0 min 0 W/m 9,7 km/h (2 Bft) 97,87 %
11.12.2018 05:08 2,6 C 1,7 C 1,1 C 94 % 1021,4 hPa 0,0 l/m 0 min 0 min 0 W/m 6,4 km/h (2 Bft) 95,74 %
11.12.2018 05:06 2,6 C 1,7 C 1,1 C 94 % 1021,4 hPa 0,0 l/m 0 min 0 min 0 W/m 9,7 km/h (2 Bft) 97,92 %
11.12.2018 05:04 2,6 C 1,7 C 1,1 C 94 % 1021,3 hPa 0,0 l/m 0 min 0 min 0 W/m 12,9 km/h (3 Bft) 97,87 %
11.12.2018 05:02 2,6 C 1,7 C 1,1 C 94 % 1021,3 hPa 0,0 l/m 0 min 0 min 0 W/m 9,7 km/h (2 Bft) 95,74 %
11.12.2018 05:00 2,7 C 1,7 C 1,1 C 94 % 1021,3 hPa 0,0 l/m 0 min 2 min 0 W/m 6,4 km/h (2 Bft) 97,87 %
11.12.2018 04:58 2,7 C 1,7 C 1,1 C 94 % 1021,2 hPa 0,0 l/m 0 min 0 min 0 W/m 6,4 km/h (2 Bft) 97,83 %
11.12.2018 04:56 2,7 C 1,7 C 1,1 C 94 % 1021,3 hPa 0,0 l/m 0 min 0 min 0 W/m 12,9 km/h (3 Bft) 95,74 %
11.12.2018 04:54 2,7 C 1,7 C 1,1 C 94 % 1021,2 hPa 0,0 l/m 0 min 0 min 0 W/m 9,7 km/h (2 Bft) 97,87 %
11.12.2018 04:52 2,8 C 1,7 C 1,1 C 94 % 1021,2 hPa 0,0 l/m 0 min 0 min 0 W/m 9,7 km/h (2 Bft) 97,87 %
11.12.2018 04:50 2,8 C 1,7 C 1,1 C 94 % 1021,3 hPa 0,0 l/m 0 min 0 min 0 W/m 6,4 km/h (2 Bft) 95,74 %
11.12.2018 04:48 2,8 C 1,7 C 1,1 C 94 % 1021,3 hPa 0,0 l/m 0 min 2 min 0 W/m 6,4 km/h (2 Bft) 97,87 %
11.12.2018 04:46 2,8 C 1,7 C 1,7 C 94 % 1021,3 hPa 0,0 l/m 0 min 0 min 0 W/m 9,7 km/h (2 Bft) 97,83 %
11.12.2018 04:44 2,8 C 1,7 C 1,1 C 94 % 1021,4 hPa 0,0 l/m 0 min 0 min 0 W/m 12,9 km/h (3 Bft) 97,87 %
11.12.2018 04:42 2,9 C 1,7 C 1,1 C 94 % 1021,4 hPa 0,0 l/m 0 min 0 min 0 W/m 9,7 km/h (2 Bft) 97,87 %
11.12.2018 04:40 2,9 C 1,7 C 1,1 C 94 % 1021,4 hPa 0,0 l/m 0 min 2 min 0 W/m 9,7 km/h (2 Bft) 97,87 %
11.12.2018 04:38 2,9 C 1,7 C 1,7 C 94 % 1021,4 hPa 0,0 l/m 0 min 0 min 0 W/m 9,7 km/h (2 Bft) 97,14 %
11.12.2018 04:36 2,9 C 2,2 C 1,7 C 94 % 1021,4 hPa 0,0 l/m 0 min 0 min 0 W/m 12,9 km/h (3 Bft) 98,31 %
11.12.2018 04:34 3,0 C 2,2 C 1,7 C 94 % 1021,4 hPa 0,0 l/m 0 min 0 min 0 W/m 6,4 km/h (2 Bft) 97,83 %
11.12.2018 04:32 3,0 C 2,2 C 1,7 C 94 % 1021,5 hPa 0,0 l/m 0 min 0 min 0 W/m 6,4 km/h (2 Bft) 95,74 %
11.12.2018 04:30 3,0 C 2,2 C 1,7 C 94 % 1021,5 hPa 0,0 l/m 0 min 0 min 0 W/m 6,4 km/h (2 Bft) 97,87 %
11.12.2018 04:28 3,0 C 2,2 C 1,7 C 94 % 1021,5 hPa 0,0 l/m 0 min 2 min 0 W/m 9,7 km/h (2 Bft) 97,87 %
11.12.2018 04:26 3,0 C 2,2 C 1,7 C 94 % 1021,5 hPa 0,0 l/m 0 min 2 min 0 W/m 9,7 km/h (2 Bft) 100,00 %
11.12.2018 04:24 3,1 C 2,2 C 1,7 C 94 % 1021,5 hPa 0,0 l/m 0 min 2 min 0 W/m 9,7 km/h (2 Bft) 100,00 %
11.12.2018 04:22 3,1 C 2,2 C 1,7 C 94 % 1021,5 hPa 0,0 l/m 0 min 0 min 0 W/m 6,4 km/h (2 Bft) 100,00 %
11.12.2018 04:20 3,1 C 2,2 C 1,7 C 94 % 1021,6 hPa 0,0 l/m 0 min 2 min 0 W/m 6,4 km/h (2 Bft) 100,00 %
11.12.2018 04:18 3,1 C 2,2 C 1,7 C 94 % 1021,6 hPa 0,0 l/m 0 min 0 min 0 W/m 9,7 km/h (2 Bft) 100,00 %
11.12.2018 04:16 3,1 C 2,2 C 1,7 C 94 % 1021,6 hPa 0,0 l/m 0 min 2 min 0 W/m 9,7 km/h (2 Bft) 100,00 %
11.12.2018 04:14 3,0 C 2,2 C 1,7 C 94 % 1021,6 hPa 0,0 l/m 0 min 2 min 0 W/m 6,4 km/h (2 Bft) 97,87 %
11.12.2018 04:12 3,0 C 2,2 C 1,7 C 94 % 1021,5 hPa 0,0 l/m 0 min 2 min 0 W/m 9,7 km/h (2 Bft) 97,87 %
11.12.2018 04:10 3,0 C 2,2 C 1,7 C 94 % 1021,7 hPa 0,0 l/m 0 min 2 min 0 W/m 12,9 km/h (3 Bft) 100,00 %
11.12.2018 04:08 2,9 C 2,8 C 1,7 C 94 % 1021,6 hPa 0,0 l/m 0 min 2 min 0 W/m 12,9 km/h (3 Bft) 100,00 %
11.12.2018 04:06 2,9 C 2,8 C 2,2 C 94 % 1021,7 hPa 0,0 l/m 0 min 2 min 0 W/m 19,3 km/h (3 Bft) 100,00 %
11.12.2018 04:04 2,8 C 2,8 C 1,7 C 93 % 1021,5 hPa 0,0 l/m 0 min 0 min 0 W/m 16,1 km/h (3 Bft) 93,62 %
11.12.2018 04:02 2,8 C 2,2 C 1,7 C 93 % 1021,6 hPa 0,0 l/m 0 min 0 min 0 W/m 6,4 km/h (2 Bft) 100,00 %
11.12.2018 04:00 2,8 C 2,2 C 1,7 C 93 % 1021,6 hPa 0,0 l/m 0 min 0 min 0 W/m 12,9 km/h (3 Bft) 97,87 %
11.12.2018 03:58 2,8 C 2,2 C 1,7 C 93 % 1021,6 hPa 0,0 l/m 0 min 0 min 0 W/m 9,7 km/h (2 Bft) 100,00 %
11.12.2018 03:56 2,8 C 2,2 C 1,7 C 93 % 1021,6 hPa 0,0 l/m 0 min 0 min 0 W/m 6,4 km/h (2 Bft) 100,00 %
11.12.2018 03:54 2,8 C 2,2 C 1,7 C 93 % 1021,5 hPa 0,0 l/m 0 min 0 min 0 W/m 9,7 km/h (2 Bft) 100,00 %
11.12.2018 03:52 2,8 C 2,2 C 1,7 C 93 % 1021,6 hPa 0,0 l/m 0 min 0 min 0 W/m 16,1 km/h (3 Bft) 100,00 %
11.12.2018 03:50 2,8 C 2,2 C 1,7 C 93 % 1021,6 hPa 0,0 l/m 0 min 0 min 0 W/m 6,4 km/h (2 Bft) 100,00 %
11.12.2018 03:48 2,8 C 2,2 C 1,7 C 93 % 1021,5 hPa 0,0 l/m 0 min 0 min 0 W/m 9,7 km/h (2 Bft) 100,00 %
11.12.2018 03:46 2,9 C 2,2 C 1,7 C 93 % 1021,5 hPa 0,0 l/m 0 min 0 min 0 W/m 6,4 km/h (2 Bft) 100,00 %
11.12.2018 03:44 2,9 C 2,2 C 1,7 C 93 % 1021,5 hPa 0,0 l/m 0 min 0 min 0 W/m 6,4 km/h (2 Bft) 97,87 %
11.12.2018 03:42 2,9 C 2,2 C 1,7 C 93 % 1021,5 hPa 0,0 l/m 0 min 0 min 0 W/m 6,4 km/h (2 Bft) 95,74 %
11.12.2018 03:40 2,9 C 2,2 C 1,7 C 93 % 1021,5 hPa 0,0 l/m 0 min 0 min 0 W/m 9,7 km/h (2 Bft) 97,87 %
11.12.2018 03:38 2,9 C 2,2 C 1,7 C 93 % 1021,5 hPa 0,0 l/m 0 min 0 min 0 W/m 9,7 km/h (2 Bft) 97,14 %
11.12.2018 03:36 3,0 C 2,2 C 1,7 C 93 % 1021,6 hPa 0,0 l/m 0 min 0 min 0 W/m 6,4 km/h (2 Bft) 98,28 %
11.12.2018 03:34 3,0 C 2,2 C 1,7 C 93 % 1021,5 hPa 0,0 l/m 0 min 0 min 0 W/m 9,7 km/h (2 Bft) 97,87 %
11.12.2018 03:32 3,0 C 2,2 C 1,7 C 93 % 1021,5 hPa 0,0 l/m 0 min 0 min 0 W/m 12,9 km/h (3 Bft) 97,87 %
11.12.2018 03:30 3,1 C 2,2 C 1,7 C 93 % 1021,5 hPa 0,0 l/m 0 min 0 min 0 W/m 9,7 km/h (2 Bft) 97,87 %
11.12.2018 03:28 3,1 C 2,2 C 1,7 C 93 % 1021,5 hPa 0,0 l/m 0 min 0 min 0 W/m 6,4 km/h (2 Bft) 95,74 %
11.12.2018 03:26 3,1 C 2,2 C 1,7 C 93 % 1021,6 hPa 0,0 l/m 0 min 0 min 0 W/m 6,4 km/h (2 Bft) 97,87 %
11.12.2018 03:24 3,1 C 2,2 C 1,7 C 93 % 1021,5 hPa 0,0 l/m 0 min 0 min 0 W/m 9,7 km/h (2 Bft) 95,65 %
11.12.2018 03:22 3,2 C 2,2 C 1,7 C 93 % 1021,6 hPa 0,0 l/m 0 min 0 min 0 W/m 12,9 km/h (3 Bft) 95,74 %
11.12.2018 03:20 3,2 C 2,2 C 1,7 C 93 % 1021,6 hPa 0,0 l/m 0 min 0 min 0 W/m 6,4 km/h (2 Bft) 95,74 %
11.12.2018 03:18 3,2 C 2,2 C 1,7 C 93 % 1021,6 hPa 0,0 l/m 0 min 0 min 0 W/m 9,7 km/h (2 Bft) 97,87 %
11.12.2018 03:16 3,2 C 2,2 C 1,7 C 93 % 1021,6 hPa 0,0 l/m 0 min 0 min 0 W/m 16,1 km/h (3 Bft) 95,74 %
11.12.2018 03:14 3,2 C 2,2 C 1,7 C 93 % 1021,6 hPa 0,0 l/m 0 min 0 min 0 W/m 12,9 km/h (3 Bft) 97,87 %
11.12.2018 03:12 3,3 C 2,2 C 1,7 C 93 % 1021,6 hPa 0,0 l/m 0 min 0 min 0 W/m 9,7 km/h (2 Bft) 95,65 %
11.12.2018 03:10 3,3 C 2,2 C 1,7 C 93 % 1021,6 hPa 0,0 l/m 0 min 0 min 0 W/m 9,7 km/h (2 Bft) 93,62 %
11.12.2018 03:08 3,3 C 2,2 C 2,2 C 93 % 1021,6 hPa 0,0 l/m 0 min 0 min 0 W/m 12,9 km/h (3 Bft) 93,62 %
11.12.2018 03:06 3,3 C 2,2 C 2,2 C 93 % 1021,6 hPa 0,0 l/m 0 min 0 min 0 W/m 16,1 km/h (3 Bft) 87,23 %
11.12.2018 03:04 3,3 C 2,8 C 2,2 C 93 % 1021,6 hPa 0,0 l/m 0 min 0 min 0 W/m 9,7 km/h (2 Bft) 93,62 %
11.12.2018 03:02 3,3 C 2,8 C 2,2 C 93 % 1021,6 hPa 0,0 l/m 0 min 0 min 0 W/m 9,7 km/h (2 Bft) 95,74 %
11.12.2018 03:00 3,4 C 2,8 C 2,2 C 93 % 1021,6 hPa 0,0 l/m 0 min 0 min 0 W/m 9,7 km/h (2 Bft) 97,83 %
11.12.2018 02:58 3,4 C 2,8 C 2,2 C 93 % 1021,7 hPa 0,0 l/m 0 min 0 min 0 W/m 12,9 km/h (3 Bft) 97,87 %
11.12.2018 02:56 3,4 C 2,8 C 2,2 C 93 % 1021,6 hPa 0,0 l/m 0 min 0 min 0 W/m 6,4 km/h (2 Bft) 95,74 %
11.12.2018 02:54 3,4 C 2,8 C 2,2 C 93 % 1021,6 hPa 0,0 l/m 0 min 0 min 0 W/m 9,7 km/h (2 Bft) 93,62 %
11.12.2018 02:52 3,4 C 2,8 C 2,2 C 93 % 1021,6 hPa 0,0 l/m 0 min 0 min 0 W/m 12,9 km/h (3 Bft) 95,74 %
11.12.2018 02:50 3,4 C 2,8 C 2,2 C 93 % 1021,6 hPa 0,0 l/m 0 min 0 min 0 W/m 9,7 km/h (2 Bft) 95,74 %
11.12.2018 02:48 3,4 C 2,8 C 2,2 C 93 % 1021,6 hPa 0,0 l/m 0 min 0 min 0 W/m 12,9 km/h (3 Bft) 95,65 %
11.12.2018 02:46 3,4 C 2,8 C 2,2 C 93 % 1021,6 hPa 0,0 l/m 0 min 0 min 0 W/m 12,9 km/h (3 Bft) 95,74 %
11.12.2018 02:44 3,4 C 2,8 C 2,2 C 93 % 1021,5 hPa 0,0 l/m 0 min 0 min 0 W/m 9,7 km/h (2 Bft) 97,87 %
11.12.2018 02:42 3,4 C 2,8 C 2,2 C 93 % 1021,6 hPa 0,0 l/m 0 min 0 min 0 W/m 12,9 km/h (3 Bft) 97,87 %
11.12.2018 02:40 3,4 C 2,8 C 2,2 C 93 % 1021,5 hPa 0,0 l/m 0 min 0 min 0 W/m 12,9 km/h (3 Bft) 97,87 %
11.12.2018 02:38 3,4 C 2,8 C 2,2 C 93 % 1021,6 hPa 0,0 l/m 0 min 0 min 0 W/m 12,9 km/h (3 Bft) 97,83 %
11.12.2018 02:36 3,4 C 2,8 C 2,2 C 93 % 1021,5 hPa 0,0 l/m 0 min 0 min 0 W/m 12,9 km/h (3 Bft) 95,65 %
11.12.2018 02:34 3,4 C 2,8 C 2,2 C 93 % 1021,5 hPa 0,0 l/m 0 min 0 min 0 W/m 12,9 km/h (3 Bft) 98,04 %
11.12.2018 02:32 3,4 C 2,8 C 2,2 C 93 % 1021,5 hPa 0,0 l/m 0 min 0 min 0 W/m 12,9 km/h (3 Bft) 95,74 %
11.12.2018 02:30 3,4 C 2,8 C 2,2 C 93 % 1021,5 hPa 0,0 l/m 0 min 0 min 0 W/m 12,9 km/h (3 Bft) 97,87 %
11.12.2018 02:28 3,4 C 2,8 C 2,2 C 93 % 1021,5 hPa 0,0 l/m 0 min 0 min 0 W/m 9,7 km/h (2 Bft) 93,62 %
11.12.2018 02:26 3,4 C 3,3 C 2,2 C 93 % 1021,5 hPa 0,0 l/m 0 min 0 min 0 W/m 12,9 km/h (3 Bft) 97,83 %
11.12.2018 02:24 3,4 C 2,8 C 2,2 C 93 % 1021,4 hPa 0,0 l/m 0 min 0 min 0 W/m 16,1 km/h (3 Bft) 95,74 %
11.12.2018 02:22 3,4 C 2,8 C 2,2 C 93 % 1021,4 hPa 0,0 l/m 0 min 0 min 0 W/m 12,9 km/h (3 Bft) 93,62 %
11.12.2018 02:20 3,4 C 2,8 C 2,2 C 93 % 1021,5 hPa 0,0 l/m 0 min 0 min 0 W/m 16,1 km/h (3 Bft) 93,62 %
11.12.2018 02:18 3,4 C 2,8 C 2,2 C 93 % 1021,5 hPa 0,0 l/m 0 min 0 min 0 W/m 9,7 km/h (2 Bft) 95,74 %
11.12.2018 02:16 3,4 C 2,8 C 2,2 C 93 % 1021,5 hPa 0,0 l/m 0 min 0 min 0 W/m 12,9 km/h (3 Bft) 93,48 %
11.12.2018 02:14 3,4 C 2,8 C 2,2 C 93 % 1021,5 hPa 0,0 l/m 0 min 0 min 0 W/m 9,7 km/h (2 Bft) 97,87 %
11.12.2018 02:12 3,4 C 2,8 C 2,2 C 93 % 1021,6 hPa 0,0 l/m 0 min 0 min 0 W/m 9,7 km/h (2 Bft) 97,87 %
11.12.2018 02:10 3,4 C 2,8 C 2,2 C 93 % 1021,6 hPa 0,0 l/m 0 min 0 min 0 W/m 9,7 km/h (2 Bft) 97,87 %
11.12.2018 02:08 3,4 C 2,8 C 2,2 C 93 % 1021,5 hPa 0,0 l/m 0 min 0 min 0 W/m 9,7 km/h (2 Bft) 97,14 %
11.12.2018 02:06 3,4 C 2,8 C 2,2 C 93 % 1021,4 hPa 0,0 l/m 0 min 0 min 0 W/m 9,7 km/h (2 Bft) 98,31 %
11.12.2018 02:04 3,3 C 2,8 C 2,2 C 93 % 1021,5 hPa 0,0 l/m 0 min 0 min 0 W/m 12,9 km/h (3 Bft) 97,83 %
11.12.2018 02:02 3,3 C 2,8 C 2,2 C 93 % 1021,4 hPa 0,0 l/m 0 min 0 min 0 W/m 6,4 km/h (2 Bft) 97,87 %
11.12.2018 02:00 3,3 C 2,8 C 2,2 C 93 % 1021,5 hPa 0,0 l/m 0 min 0 min 0 W/m 6,4 km/h (2 Bft) 95,74 %
11.12.2018 01:58 3,3 C 2,8 C 2,2 C 93 % 1021,5 hPa 0,0 l/m 0 min 0 min 0 W/m 9,7 km/h (2 Bft) 95,74 %
11.12.2018 01:56 3,3 C 2,8 C 2,2 C 93 % 1021,5 hPa 0,0 l/m 0 min 0 min 0 W/m 6,4 km/h (2 Bft) 95,74 %
11.12.2018 01:54 3,3 C 2,8 C 2,2 C 93 % 1021,5 hPa 0,0 l/m 0 min 0 min 0 W/m 16,1 km/h (3 Bft) 97,83 %
11.12.2018 01:52 3,3 C 2,8 C 2,2 C 93 % 1021,5 hPa 0,0 l/m 0 min 0 min 0 W/m 12,9 km/h (3 Bft) 97,87 %
11.12.2018 01:50 3,3 C 2,8 C 2,2 C 93 % 1021,5 hPa 0,0 l/m 0 min 0 min 0 W/m 9,7 km/h (2 Bft) 97,87 %
11.12.2018 01:48 3,3 C 2,8 C 2,2 C 93 % 1021,5 hPa 0,0 l/m 0 min 0 min 0 W/m 9,7 km/h (2 Bft) 95,74 %
11.12.2018 01:46 3,3 C 2,8 C 2,2 C 93 % 1021,6 hPa 0,0 l/m 0 min 0 min 0 W/m 6,4 km/h (2 Bft) 97,87 %
11.12.2018 01:44 3,3 C 2,8 C 2,2 C 93 % 1021,6 hPa 0,0 l/m 0 min 0 min 0 W/m 16,1 km/h (3 Bft) 93,62 %
11.12.2018 01:42 3,3 C 2,8 C 2,2 C 93 % 1021,6 hPa 0,0 l/m 0 min 0 min 0 W/m 16,1 km/h (3 Bft) 97,87 %
11.12.2018 01:40 3,2 C 2,8 C 2,2 C 93 % 1021,6 hPa 0,0 l/m 0 min 0 min 0 W/m 16,1 km/h (3 Bft) 97,83 %
11.12.2018 01:38 3,2 C 2,8 C 2,2 C 93 % 1021,6 hPa 0,0 l/m 0 min 0 min 0 W/m 12,9 km/h (3 Bft) 100,00 %
11.12.2018 01:36 3,2 C 2,8 C 2,2 C 93 % 1021,5 hPa 0,0 l/m 0 min 0 min 0 W/m 12,9 km/h (3 Bft) 98,28 %
11.12.2018 01:34 3,2 C 2,8 C 2,2 C 93 % 1021,5 hPa 0,0 l/m 0 min 0 min 0 W/m 16,1 km/h (3 Bft) 100,00 %
11.12.2018 01:32 3,2 C 2,8 C 2,2 C 93 % 1021,6 hPa 0,0 l/m 0 min 0 min 0 W/m 16,1 km/h (3 Bft) 100,00 %
11.12.2018 01:30 3,2 C 2,8 C 2,2 C 93 % 1021,5 hPa 0,0 l/m 0 min 0 min 0 W/m 12,9 km/h (3 Bft) 100,00 %
11.12.2018 01:28 3,2 C 2,8 C 2,2 C 93 % 1021,5 hPa 0,0 l/m 0 min 0 min 0 W/m 9,7 km/h (2 Bft) 100,00 %
11.12.2018 01:26 3,2 C 2,8 C 2,2 C 93 % 1021,5 hPa 0,0 l/m 0 min 0 min 0 W/m 12,9 km/h (3 Bft) 100,00 %
11.12.2018 01:24 3,2 C 2,8 C 2,2 C 93 % 1021,6 hPa 0,0 l/m 0 min 0 min 0 W/m 19,3 km/h (3 Bft) 97,87 %
11.12.2018 01:22 3,2 C 2,8 C 2,2 C 93 % 1021,6 hPa 0,0 l/m 0 min 0 min 0 W/m 19,3 km/h (3 Bft) 97,87 %
11.12.2018 01:20 3,2 C 2,8 C 2,2 C 93 % 1021,6 hPa 0,0 l/m 0 min 0 min 0 W/m 16,1 km/h (3 Bft) 100,00 %
11.12.2018 01:18 3,2 C 2,8 C 2,2 C 93 % 1021,6 hPa 0,0 l/m 0 min 0 min 0 W/m 12,9 km/h (3 Bft) 97,87 %
11.12.2018 01:16 3,2 C 2,8 C 2,2 C 93 % 1021,6 hPa 0,0 l/m 0 min 0 min 0 W/m 9,7 km/h (2 Bft) 97,83 %
11.12.2018 01:14 3,2 C 2,8 C 2,2 C 93 % 1021,6 hPa 0,0 l/m 0 min 0 min 0 W/m 12,9 km/h (3 Bft) 97,87 %
11.12.2018 01:12 3,2 C 2,8 C 2,2 C 93 % 1021,7 hPa 0,0 l/m 0 min 0 min 0 W/m 9,7 km/h (2 Bft) 97,87 %
11.12.2018 01:10 3,2 C 2,8 C 2,2 C 93 % 1021,7 hPa 0,0 l/m 0 min 0 min 0 W/m 9,7 km/h (2 Bft) 97,87 %
11.12.2018 01:08 3,2 C 2,8 C 2,2 C 93 % 1021,6 hPa 0,0 l/m 0 min 0 min 0 W/m 9,7 km/h (2 Bft) 97,14 %
11.12.2018 01:06 3,2 C 2,8 C 2,2 C 93 % 1021,6 hPa 0,0 l/m 0 min 0 min 0 W/m 12,9 km/h (3 Bft) 98,28 %
11.12.2018 01:04 3,2 C 2,8 C 2,2 C 93 % 1021,6 hPa 0,0 l/m 0 min 0 min 0 W/m 12,9 km/h (3 Bft) 97,87 %
11.12.2018 01:02 3,2 C 2,8 C 2,2 C 93 % 1021,6 hPa 0,0 l/m 0 min 0 min 0 W/m 16,1 km/h (3 Bft) 95,74 %
11.12.2018 01:00 3,2 C 2,8 C 2,2 C 93 % 1021,6 hPa 0,0 l/m 0 min 0 min 0 W/m 6,4 km/h (2 Bft) 97,87 %
11.12.2018 00:58 3,2 C 2,8 C 2,2 C 93 % 1021,6 hPa 0,0 l/m 0 min 0 min 0 W/m 12,9 km/h (3 Bft) 97,87 %
11.12.2018 00:56 3,2 C 2,8 C 2,2 C 93 % 1021,5 hPa 0,0 l/m 0 min 0 min 0 W/m 9,7 km/h (2 Bft) 97,87 %
11.12.2018 00:54 3,2 C 2,8 C 2,2 C 93 % 1021,5 hPa 0,0 l/m 0 min 0 min 0 W/m 6,4 km/h (2 Bft) 97,87 %
11.12.2018 00:52 3,2 C 2,8 C 2,2 C 93 % 1021,5 hPa 0,0 l/m 0 min 0 min 0 W/m 9,7 km/h (2 Bft) 97,83 %
11.12.2018 00:50 3,2 C 2,8 C 2,2 C 93 % 1021,6 hPa 0,0 l/m 0 min 0 min 0 W/m 9,7 km/h (2 Bft) 97,87 %
11.12.2018 00:48 3,2 C 2,8 C 2,2 C 93 % 1021,6 hPa 0,0 l/m 0 min 0 min 0 W/m 12,9 km/h (3 Bft) 97,87 %
11.12.2018 00:46 3,2 C 2,8 C 2,2 C 93 % 1021,6 hPa 0,0 l/m 0 min 0 min 0 W/m 12,9 km/h (3 Bft) 97,87 %
11.12.2018 00:44 3,2 C 2,8 C 2,2 C 93 % 1021,6 hPa 0,0 l/m 0 min 0 min 0 W/m 12,9 km/h (3 Bft) 97,87 %
11.12.2018 00:42 3,2 C 2,8 C 2,2 C 93 % 1021,6 hPa 0,0 l/m 0 min 0 min 0 W/m 9,7 km/h (2 Bft) 93,48 %
11.12.2018 00:40 3,2 C 2,8 C 2,2 C 93 % 1021,6 hPa 0,0 l/m 0 min 0 min 0 W/m 9,7 km/h (2 Bft) 97,87 %
11.12.2018 00:38 3,2 C 2,8 C 2,2 C 93 % 1021,6 hPa 0,0 l/m 0 min 0 min 0 W/m 9,7 km/h (2 Bft) 97,14 %
11.12.2018 00:36 3,3 C 2,8 C 2,2 C 93 % 1021,6 hPa 0,0 l/m 0 min 0 min 0 W/m 9,7 km/h (2 Bft) 98,31 %
11.12.2018 00:34 3,2 C 2,8 C 2,2 C 93 % 1021,6 hPa 0,0 l/m 0 min 0 min 0 W/m 12,9 km/h (3 Bft) 97,87 %
11.12.2018 00:32 3,3 C 2,8 C 2,2 C 93 % 1021,6 hPa 0,0 l/m 0 min 0 min 0 W/m 9,7 km/h (2 Bft) 100,00 %
11.12.2018 00:30 3,3 C 2,8 C 2,2 C 93 % 1021,6 hPa 0,0 l/m 0 min 0 min 0 W/m 6,4 km/h (2 Bft) 97,83 %
11.12.2018 00:28 3,3 C 2,8 C 2,2 C 93 % 1021,6 hPa 0,0 l/m 0 min 0 min 0 W/m 6,4 km/h (2 Bft) 97,87 %
11.12.2018 00:26 3,3 C 2,8 C 2,2 C 93 % 1021,6 hPa 0,0 l/m 0 min 0 min 0 W/m 9,7 km/h (2 Bft) 97,87 %
11.12.2018 00:24 3,3 C 2,8 C 2,2 C 93 % 1021,6 hPa 0,0 l/m 0 min 0 min 0 W/m 9,7 km/h (2 Bft) 97,87 %
11.12.2018 00:22 3,3 C 2,8 C 2,2 C 93 % 1021,5 hPa 0,0 l/m 0 min 0 min 0 W/m 6,4 km/h (2 Bft) 95,74 %
11.12.2018 00:20 3,3 C 2,8 C 2,2 C 94 % 1021,5 hPa 0,0 l/m 0 min 0 min 0 W/m 6,4 km/h (2 Bft) 97,83 %
11.12.2018 00:18 3,3 C 2,8 C 2,2 C 94 % 1021,5 hPa 0,0 l/m 0 min 0 min 0 W/m 22,5 km/h (4 Bft) 100,00 %
11.12.2018 00:16 3,3 C 2,8 C 2,2 C 94 % 1021,5 hPa 0,0 l/m 0 min 0 min 0 W/m 9,7 km/h (2 Bft) 100,00 %
11.12.2018 00:14 3,2 C 2,8 C 2,2 C 94 % 1021,6 hPa 0,0 l/m 0 min 0 min 0 W/m 9,7 km/h (2 Bft) 100,00 %
11.12.2018 00:12 3,2 C 2,8 C 2,2 C 94 % 1021,5 hPa 0,0 l/m 0 min 0 min 0 W/m 6,4 km/h (2 Bft) 97,87 %
11.12.2018 00:10 3,2 C 2,8 C 2,2 C 94 % 1021,5 hPa 0,0 l/m 0 min 0 min 0 W/m 12,9 km/h (3 Bft) 97,87 %
11.12.2018 00:08 3,2 C 2,8 C 2,2 C 93 % 1021,5 hPa 0,0 l/m 0 min 0 min 0 W/m 9,7 km/h (2 Bft) 100,00 %
11.12.2018 00:07 3,2 C 2,8 C 2,2 C 93 % 1021,6 hPa 0,0 l/m 0 min 0 min 0 W/m 9,7 km/h (2 Bft) 100,00 %
11.12.2018 00:04 3,2 C 2,8 C 2,2 C 93 % 1021,5 hPa 0,0 l/m 0 min 0 min 0 W/m 9,7 km/h (2 Bft) 100,00 %
11.12.2018 00:02 3,2 C 2,8 C 2,2 C 93 % 1021,5 hPa 0,0 l/m 0 min 0 min 0 W/m 6,4 km/h (2 Bft) 96,97 %
11.12.2018 00:00 3,2 C 2,8 C 2,2 C 93 % 1021,5 hPa 0,0 l/m 0 min 0 min 0 W/m 12,9 km/h (3 Bft) 100,00 %
10.12.2018 23:58 3,2 C 2,8 C 2,2 C 93 % 1021,4 hPa 0,0 l/m 0 min 0 min 0 W/m 9,7 km/h (2 Bft) 97,87 %
10.12.2018 23:56 3,1 C 2,8 C 2,2 C 93 % 1021,5 hPa 0,0 l/m 0 min 0 min 0 W/m 9,7 km/h (2 Bft) 97,83 %
10.12.2018 23:54 3,1 C 2,8 C 2,2 C 93 % 1021,3 hPa 0,0 l/m 0 min 0 min 0 W/m 12,9 km/h (3 Bft) 100,00 %
10.12.2018 23:52 3,1 C 2,8 C 2,2 C 93 % 1021,4 hPa 0,0 l/m 0 min 0 min 0 W/m 12,9 km/h (3 Bft) 100,00 %
10.12.2018 23:50 3,1 C 2,8 C 2,2 C 93 % 1021,3 hPa 0,0 l/m 0 min 0 min 0 W/m 9,7 km/h (2 Bft) 100,00 %
10.12.2018 23:48 3,0 C 2,8 C 2,2 C 93 % 1021,3 hPa 0,0 l/m 0 min 0 min 0 W/m 9,7 km/h (2 Bft) 97,87 %
10.12.2018 23:46 3,0 C 2,8 C 2,2 C 93 % 1021,2 hPa 0,0 l/m 0 min 0 min 0 W/m 9,7 km/h (2 Bft) 95,74 %
10.12.2018 23:44 3,0 C 2,8 C 1,7 C 93 % 1021,3 hPa 0,0 l/m 0 min 0 min 0 W/m 6,4 km/h (2 Bft) 97,83 %
10.12.2018 23:42 3,0 C 2,2 C 1,7 C 93 % 1021,3 hPa 0,0 l/m 0 min 0 min 0 W/m 12,9 km/h (3 Bft) 100,00 %
10.12.2018 23:40 3,0 C 2,2 C 1,7 C 93 % 1021,3 hPa 0,0 l/m 0 min 0 min 0 W/m 9,7 km/h (2 Bft) 93,62 %
10.12.2018 23:38 3,0 C 2,2 C 1,7 C 93 % 1021,2 hPa 0,0 l/m 0 min 0 min 0 W/m 9,7 km/h (2 Bft) 100,00 %
10.12.2018 23:36 3,0 C 2,2 C 1,7 C 93 % 1021,2 hPa 0,0 l/m 0 min 0 min 0 W/m 6,4 km/h (2 Bft) 96,61 %
10.12.2018 23:34 3,0 C 2,2 C 1,7 C 93 % 1021,2 hPa 0,0 l/m 0 min 0 min 0 W/m 9,7 km/h (2 Bft) 97,87 %
10.12.2018 23:32 3,0 C 2,8 C 1,7 C 93 % 1021,1 hPa 0,0 l/m 0 min 0 min 0 W/m 12,9 km/h (3 Bft) 95,65 %
10.12.2018 23:30 3,0 C 2,2 C 1,7 C 93 % 1021,1 hPa 0,0 l/m 0 min 0 min 0 W/m 9,7 km/h (2 Bft) 95,74 %
10.12.2018 23:28 3,0 C 2,2 C 1,7 C 93 % 1021,2 hPa 0,0 l/m 0 min 0 min 0 W/m 9,7 km/h (2 Bft) 93,62 %
10.12.2018 23:26 3,0 C 2,8 C 1,7 C 93 % 1021,3 hPa 0,0 l/m 0 min 0 min 0 W/m 16,1 km/h (3 Bft) 95,74 %
10.12.2018 23:24 3,0 C 2,2 C 1,7 C 93 % 1021,3 hPa 0,0 l/m 0 min 0 min 0 W/m 9,7 km/h (2 Bft) 95,74 %
10.12.2018 23:22 3,0 C 2,8 C 1,7 C 93 % 1021,3 hPa 0,0 l/m 0 min 0 min 0 W/m 12,9 km/h (3 Bft) 93,62 %
10.12.2018 23:20 3,0 C 2,8 C 2,2 C 93 % 1021,3 hPa 0,0 l/m 0 min 0 min 0 W/m 16,1 km/h (3 Bft) 95,65 %
10.12.2018 23:18 3,0 C 2,8 C 2,2 C 93 % 1021,4 hPa 0,0 l/m 0 min 0 min 0 W/m 12,9 km/h (3 Bft) 95,74 %
10.12.2018 23:16 3,0 C 2,8 C 2,2 C 93 % 1021,3 hPa 0,0 l/m 0 min 0 min 0 W/m 9,7 km/h (2 Bft) 95,74 %
10.12.2018 23:14 3,0 C 2,2 C 1,7 C 93 % 1021,4 hPa 0,0 l/m 0 min 0 min 0 W/m 9,7 km/h (2 Bft) 95,74 %
10.12.2018 23:12 3,0 C 2,2 C 1,7 C 93 % 1021,4 hPa 0,0 l/m 0 min 0 min 0 W/m 12,9 km/h (3 Bft) 93,62 %
10.12.2018 23:10 3,0 C 2,8 C 1,7 C 93 % 1021,4 hPa 0,0 l/m 0 min 0 min 0 W/m 9,7 km/h (2 Bft) 95,74 %
10.12.2018 23:08 3,0 C 2,8 C 2,2 C 93 % 1021,4 hPa 0,0 l/m 0 min 0 min 0 W/m 19,3 km/h (3 Bft) 91,43 %
10.12.2018 23:06 3,0 C 2,8 C 2,2 C 93 % 1021,4 hPa 0,0 l/m 0 min 0 min 0 W/m 16,1 km/h (3 Bft) 96,55 %
10.12.2018 23:04 2,9 C 2,8 C 1,7 C 93 % 1021,4 hPa 0,0 l/m 0 min 0 min 0 W/m 6,4 km/h (2 Bft) 93,62 %
10.12.2018 23:02 2,9 C 2,8 C 1,7 C 93 % 1021,3 hPa 0,0 l/m 0 min 0 min 0 W/m 6,4 km/h (2 Bft) 95,74 %
10.12.2018 23:00 2,9 C 2,8 C 1,7 C 93 % 1021,4 hPa 0,0 l/m 0 min 0 min 0 W/m 6,4 km/h (2 Bft) 93,62 %
10.12.2018 22:58 2,9 C 2,8 C 1,7 C 93 % 1021,3 hPa 0,0 l/m 0 min 0 min 0 W/m 12,9 km/h (3 Bft) 93,62 %
10.12.2018 22:56 2,9 C 2,8 C 1,7 C 93 % 1021,3 hPa 0,0 l/m 0 min 0 min 0 W/m 16,1 km/h (3 Bft) 91,30 %
10.12.2018 22:54 2,9 C 2,8 C 1,7 C 93 % 1021,3 hPa 0,0 l/m 0 min 0 min 0 W/m 16,1 km/h (3 Bft) 93,62 %
10.12.2018 22:52 2,9 C 2,8 C 1,7 C 93 % 1021,2 hPa 0,0 l/m 0 min 0 min 0 W/m 6,4 km/h (2 Bft) 91,49 %
10.12.2018 22:50 2,9 C 2,8 C 2,2 C 93 % 1021,2 hPa 0,0 l/m 0 min 0 min 0 W/m 9,7 km/h (2 Bft) 93,62 %
10.12.2018 22:48 2,9 C 2,8 C 2,2 C 93 % 1021,3 hPa 0,0 l/m 0 min 0 min 0 W/m 9,7 km/h (2 Bft) 93,62 %
10.12.2018 22:46 2,9 C 2,8 C 1,7 C 93 % 1021,3 hPa 0,0 l/m 0 min 0 min 0 W/m 12,9 km/h (3 Bft) 95,65 %
10.12.2018 22:44 2,9 C 2,2 C 1,7 C 93 % 1021,3 hPa 0,0 l/m 0 min 0 min 0 W/m 9,7 km/h (2 Bft) 93,62 %
10.12.2018 22:42 2,9 C 2,2 C 1,7 C 93 % 1021,3 hPa 0,0 l/m 0 min 0 min 0 W/m 9,7 km/h (2 Bft) 95,74 %
10.12.2018 22:40 2,9 C 2,2 C 1,7 C 93 % 1021,3 hPa 0,0 l/m 0 min 0 min 0 W/m 9,7 km/h (2 Bft) 95,74 %
10.12.2018 22:38 2,9 C 2,2 C 1,7 C 93 % 1021,3 hPa 0,0 l/m 0 min 0 min 0 W/m 9,7 km/h (2 Bft) 94,29 %
10.12.2018 22:36 2,9 C 2,2 C 1,7 C 93 % 1021,2 hPa 0,0 l/m 0 min 0 min 0 W/m 6,4 km/h (2 Bft) 96,61 %
10.12.2018 22:34 2,9 C 2,2 C 1,7 C 93 % 1021,3 hPa 0,0 l/m 0 min 0 min 0 W/m 6,4 km/h (2 Bft) 95,65 %
10.12.2018 22:32 2,9 C 2,2 C 1,7 C 93 % 1021,2 hPa 0,0 l/m 0 min 0 min 0 W/m 16,1 km/h (3 Bft) 95,74 %
10.12.2018 22:30 3,0 C 2,2 C 1,7 C 93 % 1021,2 hPa 0,0 l/m 0 min 0 min 0 W/m 6,4 km/h (2 Bft) 95,74 %
10.12.2018 22:28 3,0 C 2,2 C 1,7 C 93 % 1021,1 hPa 0,0 l/m 0 min 0 min 0 W/m 12,9 km/h (3 Bft) 95,74 %
10.12.2018 22:26 3,0 C 2,2 C 1,7 C 93 % 1021,2 hPa 0,0 l/m 0 min 0 min 0 W/m 12,9 km/h (3 Bft) 95,74 %
10.12.2018 22:24 3,0 C 2,2 C 1,7 C 93 % 1021,2 hPa 0,0 l/m 0 min 0 min 0 W/m 12,9 km/h (3 Bft) 97,87 %
10.12.2018 22:22 3,0 C 2,2 C 1,7 C 93 % 1021,1 hPa 0,0 l/m 0 min 0 min 0 W/m 9,7 km/h (2 Bft) 100,00 %
10.12.2018 22:20 3,0 C 2,2 C 1,7 C 93 % 1021,2 hPa 0,0 l/m 0 min 0 min 0 W/m 9,7 km/h (2 Bft) 95,74 %
10.12.2018 22:18 3,0 C 2,2 C 1,7 C 93 % 1021,2 hPa 0,0 l/m 0 min 0 min 0 W/m 9,7 km/h (2 Bft) 97,87 %
10.12.2018 22:16 3,1 C 2,2 C 1,7 C 93 % 1021,2 hPa 0,0 l/m 0 min 0 min 0 W/m 6,4 km/h (2 Bft) 97,87 %
10.12.2018 22:14 3,1 C 2,2 C 1,7 C 93 % 1021,2 hPa 0,0 l/m 0 min 0 min 0 W/m 9,7 km/h (2 Bft) 95,74 %
10.12.2018 22:12 3,1 C 2,2 C 1,7 C 93 % 1021,2 hPa 0,0 l/m 0 min 0 min 0 W/m 9,7 km/h (2 Bft) 97,87 %
10.12.2018 22:10 3,1 C 2,2 C 1,7 C 93 % 1021,2 hPa 0,0 l/m 0 min 0 min 0 W/m 12,9 km/h (3 Bft) 95,65 %
10.12.2018 22:08 3,1 C 2,2 C 1,7 C 93 % 1021,2 hPa 0,0 l/m 0 min 0 min 0 W/m 12,9 km/h (3 Bft) 97,22 %
10.12.2018 22:06 3,1 C 2,2 C 1,7 C 93 % 1021,2 hPa 0,0 l/m 0 min 0 min 0 W/m 9,7 km/h (2 Bft) 100,00 %
10.12.2018 22:04 3,1 C 2,2 C 1,7 C 93 % 1021,2 hPa 0,0 l/m 0 min 0 min 0 W/m 12,9 km/h (3 Bft) 100,00 %
10.12.2018 22:02 3,1 C 2,2 C 1,7 C 93 % 1021,1 hPa 0,0 l/m 0 min 0 min 0 W/m 9,7 km/h (2 Bft) 100,00 %
10.12.2018 22:00 3,1 C 2,2 C 1,7 C 93 % 1021,2 hPa 0,0 l/m 0 min 0 min 0 W/m 12,9 km/h (3 Bft) 100,00 %
10.12.2018 21:58 3,1 C 2,2 C 1,7 C 93 % 1021,2 hPa 0,0 l/m 0 min 0 min 0 W/m 9,7 km/h (2 Bft) 100,00 %
10.12.2018 21:56 3,1 C 2,8 C 2,2 C 93 % 1021,2 hPa 0,0 l/m 0 min 0 min 0 W/m 9,7 km/h (2 Bft) 100,00 %
10.12.2018 21:54 3,1 C 2,8 C 2,2 C 93 % 1021,2 hPa 0,0 l/m 0 min 0 min 0 W/m 16,1 km/h (3 Bft) 100,00 %
10.12.2018 21:52 3,1 C 2,8 C 2,2 C 93 % 1021,2 hPa 0,0 l/m 0 min 0 min 0 W/m 9,7 km/h (2 Bft) 100,00 %
10.12.2018 21:50 3,2 C 2,8 C 2,2 C 93 % 1021,2 hPa 0,0 l/m 0 min 0 min 0 W/m 12,9 km/h (3 Bft) 100,00 %
10.12.2018 21:48 3,2 C 2,8 C 1,7 C 93 % 1021,2 hPa 0,0 l/m 0 min 0 min 0 W/m 12,9 km/h (3 Bft) 100,00 %
10.12.2018 21:46 3,2 C 2,2 C 1,7 C 93 % 1021,2 hPa 0,0 l/m 0 min 0 min 0 W/m 9,7 km/h (2 Bft) 100,00 %
10.12.2018 21:44 3,2 C 2,2 C 1,7 C 93 % 1021,2 hPa 0,0 l/m 0 min 0 min 0 W/m 12,9 km/h (3 Bft) 100,00 %
10.12.2018 21:42 3,2 C 2,2 C 1,7 C 93 % 1021,1 hPa 0,0 l/m 0 min 0 min 0 W/m 12,9 km/h (3 Bft) 100,00 %
10.12.2018 21:40 3,2 C 2,2 C 1,7 C 93 % 1021,2 hPa 0,0 l/m 0 min 0 min 0 W/m 12,9 km/h (3 Bft) 95,74 %
10.12.2018 21:38 3,2 C 2,2 C 2,2 C 93 % 1021,3 hPa 0,0 l/m 0 min 0 min 0 W/m 12,9 km/h (3 Bft) 97,14 %
10.12.2018 21:36 3,3 C 2,8 C 2,2 C 93 % 1021,2 hPa 0,0 l/m 0 min 0 min 0 W/m 9,7 km/h (2 Bft) 100,00 %
10.12.2018 21:34 3,3 C 2,8 C 2,2 C 93 % 1021,3 hPa 0,0 l/m 0 min 0 min 0 W/m 9,7 km/h (2 Bft) 100,00 %
10.12.2018 21:32 3,3 C 2,8 C 2,2 C 93 % 1021,4 hPa 0,0 l/m 0 min 0 min 0 W/m 12,9 km/h (3 Bft) 100,00 %
10.12.2018 21:30 3,3 C 2,8 C 2,2 C 93 % 1021,4 hPa 0,0 l/m 0 min 0 min 0 W/m 12,9 km/h (3 Bft) 100,00 %
10.12.2018 21:28 3,3 C 2,8 C 2,2 C 93 % 1021,4 hPa 0,0 l/m 0 min 0 min 0 W/m 9,7 km/h (2 Bft) 100,00 %
10.12.2018 21:26 3,3 C 2,8 C 2,2 C 93 % 1021,4 hPa 0,0 l/m 0 min 0 min 0 W/m 19,3 km/h (3 Bft) 100,00 %
10.12.2018 21:24 3,3 C 2,8 C 2,2 C 93 % 1021,4 hPa 0,0 l/m 0 min 0 min 0 W/m 16,1 km/h (3 Bft) 100,00 %
10.12.2018 21:22 3,3 C 2,8 C 2,2 C 93 % 1021,3 hPa 0,0 l/m 0 min 0 min 0 W/m 16,1 km/h (3 Bft) 100,00 %
10.12.2018 21:20 3,3 C 2,8 C 2,2 C 93 % 1021,3 hPa 0,0 l/m 0 min 0 min 0 W/m 12,9 km/h (3 Bft) 100,00 %
10.12.2018 21:18 3,3 C 2,8 C 2,2 C 93 % 1021,2 hPa 0,0 l/m 0 min 0 min 0 W/m 12,9 km/h (3 Bft) 100,00 %
10.12.2018 21:16 3,3 C 2,8 C 2,2 C 93 % 1021,2 hPa 0,0 l/m 0 min 0 min 0 W/m 12,9 km/h (3 Bft) 100,00 %
10.12.2018 21:14 3,3 C 2,8 C 2,2 C 93 % 1021,2 hPa 0,0 l/m 0 min 0 min 0 W/m 9,7 km/h (2 Bft) 100,00 %
10.12.2018 21:12 3,3 C 2,8 C 2,2 C 93 % 1021,2 hPa 0,0 l/m 0 min 0 min 0 W/m 12,9 km/h (3 Bft) 100,00 %
10.12.2018 21:10 3,3 C 2,8 C 2,2 C 93 % 1021,2 hPa 0,0 l/m 0 min 0 min 0 W/m 19,3 km/h (3 Bft) 100,00 %
10.12.2018 21:08 3,3 C 2,8 C 2,2 C 93 % 1021,2 hPa 0,0 l/m 0 min 0 min 0 W/m 16,1 km/h (3 Bft) 100,00 %
10.12.2018 21:06 3,3 C 2,8 C 2,2 C 93 % 1021,1 hPa 0,0 l/m 0 min 0 min 0 W/m 9,7 km/h (2 Bft) 100,00 %
10.12.2018 21:04 3,3 C 2,8 C 2,2 C 93 % 1021,0 hPa 0,0 l/m 0 min 0 min 0 W/m 16,1 km/h (3 Bft) 97,87 %
10.12.2018 21:02 3,3 C 2,8 C 2,2 C 93 % 1021,1 hPa 0,0 l/m 0 min 0 min 0 W/m 12,9 km/h (3 Bft) 100,00 %
10.12.2018 21:00 3,3 C 2,8 C 2,2 C 93 % 1021,0 hPa 0,0 l/m 0 min 0 min 0 W/m 16,1 km/h (3 Bft) 100,00 %
10.12.2018 20:58 3,2 C 2,8 C 2,2 C 93 % 1020,9 hPa 0,0 l/m 0 min 0 min 0 W/m 16,1 km/h (3 Bft) 97,87 %
10.12.2018 20:56 3,2 C 2,8 C 2,2 C 93 % 1021,0 hPa 0,0 l/m 0 min 0 min 0 W/m 16,1 km/h (3 Bft) 97,87 %
10.12.2018 20:54 3,2 C 2,8 C 2,2 C 92 % 1021,0 hPa 0,0 l/m 0 min 0 min 0 W/m 25,7 km/h (4 Bft) 100,00 %
10.12.2018 20:52 3,2 C 2,8 C 2,2 C 92 % 1021,0 hPa 0,0 l/m 0 min 0 min 0 W/m 9,7 km/h (2 Bft) 97,83 %
10.12.2018 20:50 3,2 C 2,8 C 2,2 C 92 % 1020,9 hPa 0,0 l/m 0 min 0 min 0 W/m 16,1 km/h (3 Bft) 100,00 %
10.12.2018 20:48 3,2 C 2,8 C 2,2 C 92 % 1020,9 hPa 0,0 l/m 0 min 0 min 0 W/m 22,5 km/h (4 Bft) 97,87 %
10.12.2018 20:46 3,2 C 2,8 C 2,2 C 92 % 1020,9 hPa 0,0 l/m 0 min 0 min 0 W/m 12,9 km/h (3 Bft) 97,87 %
10.12.2018 20:44 3,2 C 2,8 C 2,2 C 92 % 1020,9 hPa 0,0 l/m 0 min 0 min 0 W/m 9,7 km/h (2 Bft) 97,87 %
10.12.2018 20:42 3,2 C 2,8 C 2,2 C 92 % 1020,8 hPa 0,0 l/m 0 min 0 min 0 W/m 16,1 km/h (3 Bft) 91,49 %
10.12.2018 20:40 3,2 C 2,8 C 2,2 C 92 % 1020,9 hPa 0,0 l/m 0 min 0 min 0 W/m 22,5 km/h (4 Bft) 95,65 %
10.12.2018 20:38 3,2 C 2,8 C 2,2 C 92 % 1020,8 hPa 0,0 l/m 0 min 0 min 0 W/m 9,7 km/h (2 Bft) 95,74 %
10.12.2018 20:36 3,2 C 2,2 C 2,2 C 92 % 1020,8 hPa 0,0 l/m 0 min 0 min 0 W/m 12,9 km/h (3 Bft) 95,74 %
10.12.2018 20:34 3,2 C 2,8 C 2,2 C 92 % 1021,0 hPa 0,0 l/m 0 min 0 min 0 W/m 9,7 km/h (2 Bft) 95,74 %
10.12.2018 20:32 3,2 C 2,8 C 2,2 C 92 % 1020,9 hPa 0,0 l/m 0 min 0 min 0 W/m 19,3 km/h (3 Bft) 95,74 %
10.12.2018 20:30 3,2 C 2,8 C 2,2 C 92 % 1020,9 hPa 0,0 l/m 0 min 0 min 0 W/m 16,1 km/h (3 Bft) 95,74 %
10.12.2018 20:28 3,2 C 2,8 C 2,2 C 92 % 1020,9 hPa 0,0 l/m 0 min 0 min 0 W/m 9,7 km/h (2 Bft) 95,65 %
10.12.2018 20:26 3,2 C 2,8 C 2,2 C 92 % 1020,8 hPa 0,0 l/m 0 min 0 min 0 W/m 9,7 km/h (2 Bft) 91,49 %
10.12.2018 20:24 3,2 C 2,8 C 2,2 C 92 % 1020,9 hPa 0,0 l/m 0 min 0 min 0 W/m 12,9 km/h (3 Bft) 93,62 %
10.12.2018 20:22 3,2 C 2,8 C 2,2 C 92 % 1020,9 hPa 0,0 l/m 0 min 0 min 0 W/m 16,1 km/h (3 Bft) 93,62 %
10.12.2018 20:20 3,2 C 2,2 C 2,2 C 92 % 1020,9 hPa 0,0 l/m 0 min 0 min 0 W/m 16,1 km/h (3 Bft) 95,74 %
10.12.2018 20:18 3,2 C 2,2 C 2,2 C 92 % 1020,9 hPa 0,0 l/m 0 min 0 min 0 W/m 12,9 km/h (3 Bft) 93,62 %
10.12.2018 20:16 3,2 C 2,8 C 2,2 C 92 % 1021,0 hPa 0,0 l/m 0 min 0 min 0 W/m 16,1 km/h (3 Bft) 95,65 %
10.12.2018 20:14 3,2 C 2,2 C 2,2 C 92 % 1021,0 hPa 0,0 l/m 0 min 0 min 0 W/m 9,7 km/h (2 Bft) 95,74 %
10.12.2018 20:12 3,3 C 2,8 C 2,2 C 92 % 1020,9 hPa 0,0 l/m 0 min 0 min 0 W/m 9,7 km/h (2 Bft) 93,62 %
10.12.2018 20:10 3,3 C 2,8 C 2,2 C 92 % 1021,0 hPa 0,0 l/m 0 min 0 min 0 W/m 12,9 km/h (3 Bft) 95,74 %
10.12.2018 20:08 3,3 C 2,8 C 2,2 C 92 % 1021,0 hPa 0,0 l/m 0 min 0 min 0 W/m 19,3 km/h (3 Bft) 91,49 %
10.12.2018 20:06 3,3 C 2,8 C 2,2 C 92 % 1020,9 hPa 0,0 l/m 0 min 0 min 0 W/m 9,7 km/h (2 Bft) 95,65 %
10.12.2018 20:04 3,3 C 2,8 C 2,2 C 92 % 1020,9 hPa 0,0 l/m 0 min 0 min 0 W/m 16,1 km/h (3 Bft) 97,87 %
10.12.2018 20:02 3,3 C 2,8 C 2,2 C 92 % 1020,8 hPa 0,0 l/m 0 min 0 min 0 W/m 12,9 km/h (3 Bft) 97,87 %
10.12.2018 20:00 3,4 C 2,8 C 2,2 C 92 % 1020,9 hPa 0,0 l/m 0 min 0 min 0 W/m 9,7 km/h (2 Bft) 97,87 %
10.12.2018 19:58 3,4 C 2,8 C 2,2 C 92 % 1020,9 hPa 0,0 l/m 0 min 0 min 0 W/m 16,1 km/h (3 Bft) 100,00 %
10.12.2018 19:56 3,4 C 2,8 C 2,2 C 92 % 1020,9 hPa 0,0 l/m 0 min 0 min 0 W/m 12,9 km/h (3 Bft) 95,74 %
10.12.2018 19:54 3,4 C 2,8 C 2,2 C 92 % 1020,9 hPa 0,0 l/m 0 min 0 min 0 W/m 16,1 km/h (3 Bft) 100,00 %
10.12.2018 19:52 3,4 C 2,8 C 2,2 C 92 % 1020,8 hPa 0,0 l/m 0 min 0 min 0 W/m 12,9 km/h (3 Bft) 95,65 %
10.12.2018 19:50 3,4 C 2,8 C 2,2 C 92 % 1020,9 hPa 0,0 l/m 0 min 0 min 0 W/m 6,4 km/h (2 Bft) 100,00 %
10.12.2018 19:48 3,4 C 2,8 C 2,2 C 92 % 1020,9 hPa 0,0 l/m 0 min 0 min 0 W/m 6,4 km/h (2 Bft) 100,00 %
10.12.2018 19:46 3,4 C 2,8 C 2,2 C 92 % 1020,9 hPa 0,0 l/m 0 min 0 min 0 W/m 16,1 km/h (3 Bft) 97,87 %
10.12.2018 19:44 3,4 C 2,8 C 2,2 C 92 % 1020,9 hPa 0,0 l/m 0 min 0 min 0 W/m 6,4 km/h (2 Bft) 100,00 %
10.12.2018 19:42 3,4 C 2,8 C 2,2 C 92 % 1020,9 hPa 0,0 l/m 0 min 0 min 0 W/m 6,4 km/h (2 Bft) 100,00 %
10.12.2018 19:40 3,4 C 2,8 C 2,2 C 92 % 1020,9 hPa 0,0 l/m 0 min 0 min 0 W/m 9,7 km/h (2 Bft) 100,00 %
10.12.2018 19:38 3,4 C 2,8 C 2,2 C 92 % 1020,9 hPa 0,0 l/m 0 min 0 min 0 W/m 6,4 km/h (2 Bft) 100,00 %
10.12.2018 19:36 3,4 C 2,8 C 2,2 C 92 % 1020,9 hPa 0,0 l/m 0 min 0 min 0 W/m 6,4 km/h (2 Bft) 95,83 %
10.12.2018 19:34 3,4 C 2,8 C 2,2 C 92 % 1020,9 hPa 0,0 l/m 0 min 0 min 0 W/m 6,4 km/h (2 Bft) 97,87 %
10.12.2018 19:32 3,4 C 2,8 C 2,2 C 92 % 1020,8 hPa 0,0 l/m 0 min 0 min 0 W/m 9,7 km/h (2 Bft) 97,87 %
10.12.2018 19:30 3,4 C 2,8 C 2,2 C 92 % 1020,8 hPa 0,0 l/m 0 min 0 min 0 W/m 9,7 km/h (2 Bft) 97,83 %
10.12.2018 19:28 3,5 C 2,8 C 2,2 C 92 % 1020,9 hPa 0,0 l/m 0 min 0 min 0 W/m 12,9 km/h (3 Bft) 95,74 %
10.12.2018 19:26 3,5 C 2,8 C 2,2 C 92 % 1020,9 hPa 0,0 l/m 0 min 0 min 0 W/m 16,1 km/h (3 Bft) 97,87 %
10.12.2018 19:24 3,5 C 2,8 C 2,2 C 92 % 1020,9 hPa 0,0 l/m 0 min 0 min 0 W/m 9,7 km/h (2 Bft) 95,74 %
10.12.2018 19:22 3,5 C 2,8 C 2,2 C 92 % 1020,9 hPa 0,0 l/m 0 min 0 min 0 W/m 6,4 km/h (2 Bft) 100,00 %
10.12.2018 19:20 3,6 C 2,8 C 2,2 C 92 % 1020,9 hPa 0,0 l/m 0 min 0 min 0 W/m 19,3 km/h (3 Bft) 97,87 %
10.12.2018 19:18 3,6 C 2,8 C 2,2 C 92 % 1021,0 hPa 0,0 l/m 0 min 0 min 0 W/m 19,3 km/h (3 Bft) 95,65 %
10.12.2018 19:16 3,6 C 2,8 C 2,2 C 92 % 1021,0 hPa 0,0 l/m 0 min 0 min 0 W/m 16,1 km/h (3 Bft) 95,74 %
10.12.2018 19:14 3,6 C 2,8 C 2,2 C 92 % 1020,9 hPa 0,0 l/m 0 min 0 min 0 W/m 12,9 km/h (3 Bft) 97,87 %
10.12.2018 19:12 3,6 C 2,8 C 2,2 C 92 % 1020,9 hPa 0,0 l/m 0 min 0 min 0 W/m 12,9 km/h (3 Bft) 93,62 %
10.12.2018 19:10 3,6 C 2,8 C 2,2 C 92 % 1020,9 hPa 0,0 l/m 0 min 0 min 0 W/m 19,3 km/h (3 Bft) 97,87 %
10.12.2018 19:08 3,7 C 2,8 C 2,2 C 92 % 1020,8 hPa 0,0 l/m 0 min 0 min 0 W/m 12,9 km/h (3 Bft) 89,36 %
10.12.2018 19:06 3,7 C 2,8 C 2,2 C 92 % 1020,8 hPa 0,0 l/m 0 min 0 min 0 W/m 16,1 km/h (3 Bft) 97,83 %
10.12.2018 19:04 3,7 C 2,8 C 2,2 C 92 % 1020,8 hPa 0,0 l/m 0 min 0 min 0 W/m 16,1 km/h (3 Bft) 97,87 %
10.12.2018 19:02 3,7 C 2,8 C 2,2 C 92 % 1020,7 hPa 0,0 l/m 0 min 0 min 0 W/m 12,9 km/h (3 Bft) 95,74 %
10.12.2018 19:00 3,7 C 2,8 C 2,2 C 92 % 1020,8 hPa 0,0 l/m 0 min 0 min 0 W/m 12,9 km/h (3 Bft) 97,87 %
10.12.2018 18:58 3,7 C 2,8 C 2,2 C 92 % 1020,9 hPa 0,0 l/m 0 min 0 min 0 W/m 12,9 km/h (3 Bft) 97,87 %
10.12.2018 18:56 3,8 C 2,8 C 2,2 C 92 % 1020,9 hPa 0,0 l/m 0 min 0 min 0 W/m 12,9 km/h (3 Bft) 95,74 %
10.12.2018 18:54 3,8 C 2,8 C 2,2 C 92 % 1020,9 hPa 0,0 l/m 0 min 0 min 0 W/m 9,7 km/h (2 Bft) 97,83 %
10.12.2018 18:52 3,8 C 2,8 C 2,2 C 92 % 1020,8 hPa 0,0 l/m 0 min 0 min 0 W/m 12,9 km/h (3 Bft) 97,87 %
10.12.2018 18:50 3,8 C 2,8 C 2,2 C 92 % 1020,9 hPa 0,0 l/m 0 min 0 min 0 W/m 12,9 km/h (3 Bft) 97,87 %
10.12.2018 18:48 3,8 C 2,8 C 2,8 C 92 % 1020,8 hPa 0,0 l/m 0 min 0 min 0 W/m 12,9 km/h (3 Bft) 97,87 %
10.12.2018 18:46 3,8 C 3,3 C 2,8 C 92 % 1020,8 hPa 0,0 l/m 0 min 0 min 0 W/m 16,1 km/h (3 Bft) 97,87 %
10.12.2018 18:44 3,8 C 3,3 C 2,8 C 92 % 1020,7 hPa 0,0 l/m 0 min 0 min 0 W/m 12,9 km/h (3 Bft) 97,83 %
10.12.2018 18:42 3,9 C 3,3 C 2,8 C 92 % 1020,8 hPa 0,0 l/m 0 min 0 min 0 W/m 9,7 km/h (2 Bft) 97,87 %
10.12.2018 18:40 3,9 C 3,3 C 2,8 C 92 % 1020,8 hPa 0,0 l/m 0 min 0 min 0 W/m 19,3 km/h (3 Bft) 97,87 %
10.12.2018 18:38 3,9 C 3,3 C 2,8 C 92 % 1020,7 hPa 0,0 l/m 0 min 0 min 0 W/m 12,9 km/h (3 Bft) 95,74 %
10.12.2018 18:36 3,9 C 3,3 C 2,8 C 92 % 1020,7 hPa 0,0 l/m 0 min 0 min 0 W/m 9,7 km/h (2 Bft) 95,74 %
10.12.2018 18:34 3,9 C 3,3 C 2,8 C 92 % 1020,6 hPa 0,0 l/m 0 min 0 min 0 W/m 9,7 km/h (2 Bft) 97,87 %
10.12.2018 18:32 3,9 C 2,8 C 2,8 C 92 % 1020,5 hPa 0,0 l/m 0 min 0 min 0 W/m 9,7 km/h (2 Bft) 94,34 %
10.12.2018 18:30 3,9 C 3,3 C 2,8 C 91 % 1020,5 hPa 0,0 l/m 0 min 0 min 0 W/m 12,9 km/h (3 Bft) 95,74 %
10.12.2018 18:28 3,9 C 3,3 C 2,8 C 91 % 1020,5 hPa 0,0 l/m 0 min 0 min 0 W/m 16,1 km/h (3 Bft) 95,65 %
10.12.2018 18:26 3,9 C 3,3 C 2,8 C 91 % 1020,6 hPa 0,0 l/m 0 min 0 min 0 W/m 9,7 km/h (2 Bft) 97,87 %
10.12.2018 18:24 4,0 C 3,3 C 2,8 C 91 % 1020,5 hPa 0,0 l/m 0 min 0 min 0 W/m 12,9 km/h (3 Bft) 97,87 %
10.12.2018 18:22 4,0 C 3,3 C 2,8 C 91 % 1020,6 hPa 0,0 l/m 0 min 0 min 0 W/m 16,1 km/h (3 Bft) 97,87 %
10.12.2018 18:20 4,0 C 3,3 C 2,8 C 91 % 1020,6 hPa 0,0 l/m 0 min 0 min 0 W/m 16,1 km/h (3 Bft) 97,87 %
10.12.2018 18:18 4,1 C 3,3 C 2,8 C 91 % 1020,6 hPa 0,0 l/m 0 min 0 min 0 W/m 9,7 km/h (2 Bft) 95,74 %
10.12.2018 18:16 4,1 C 3,3 C 2,8 C 91 % 1020,7 hPa 0,0 l/m 0 min 0 min 0 W/m 9,7 km/h (2 Bft) 93,48 %
10.12.2018 18:14 4,1 C 3,3 C 2,8 C 91 % 1020,7 hPa 0,0 l/m 0 min 0 min 0 W/m 9,7 km/h (2 Bft) 97,87 %
10.12.2018 18:12 4,2 C 3,3 C 2,8 C 91 % 1020,6 hPa 0,0 l/m 0 min 0 min 0 W/m 9,7 km/h (2 Bft) 97,87 %
10.12.2018 18:10 4,2 C 3,3 C 2,8 C 91 % 1020,7 hPa 0,0 l/m 0 min 0 min 0 W/m 16,1 km/h (3 Bft) 97,87 %
10.12.2018 18:08 4,2 C 3,3 C 2,8 C 91 % 1020,6 hPa 0,0 l/m 0 min 0 min 0 W/m 16,1 km/h (3 Bft) 96,77 %
10.12.2018 18:04 4,2 C 3,3 C 2,8 C 91 % 1020,6 hPa 0,0 l/m 0 min 0 min 0 W/m 19,3 km/h (3 Bft) 95,74 %
10.12.2018 18:02 4,3 C 3,3 C 2,8 C 91 % 1020,6 hPa 0,0 l/m 0 min 0 min 0 W/m 22,5 km/h (4 Bft) 97,87 %
10.12.2018 18:00 4,3 C 3,3 C 2,8 C 91 % 1020,6 hPa 0,0 l/m 0 min 0 min 0 W/m 22,5 km/h (4 Bft) 95,74 %
10.12.2018 17:58 4,3 C 3,3 C 3,3 C 91 % 1020,6 hPa 0,0 l/m 0 min 0 min 0 W/m 19,3 km/h (3 Bft) 91,49 %
10.12.2018 17:56 4,3 C 3,9 C 3,3 C 91 % 1020,7 hPa 0,0 l/m 0 min 0 min 0 W/m 12,9 km/h (3 Bft) 95,74 %
10.12.2018 17:54 4,3 C 3,9 C 3,3 C 92 % 1020,6 hPa 0,0 l/m 0 min 0 min 0 W/m 22,5 km/h (4 Bft) 93,48 %
10.12.2018 17:52 4,4 C 3,9 C 3,3 C 92 % 1020,5 hPa 0,0 l/m 0 min 0 min 0 W/m 19,3 km/h (3 Bft) 91,49 %
10.12.2018 17:50 4,4 C 3,9 C 3,3 C 92 % 1020,5 hPa 0,0 l/m 0 min 0 min 0 W/m 12,9 km/h (3 Bft) 97,87 %
10.12.2018 17:48 4,4 C 3,9 C 3,3 C 92 % 1020,5 hPa 0,0 l/m 0 min 0 min 0 W/m 16,1 km/h (3 Bft) 97,87 %
10.12.2018 17:46 4,4 C 3,9 C 3,3 C 92 % 1020,4 hPa 0,0 l/m 0 min 0 min 0 W/m 25,7 km/h (4 Bft) 93,62 %
10.12.2018 17:44 4,4 C 3,9 C 3,3 C 92 % 1020,4 hPa 0,0 l/m 0 min 0 min 0 W/m 12,9 km/h (3 Bft) 95,74 %
10.12.2018 17:42 4,4 C 3,9 C 3,3 C 92 % 1020,5 hPa 0,0 l/m 0 min 0 min 0 W/m 12,9 km/h (3 Bft) 95,65 %
10.12.2018 17:40 4,4 C 3,9 C 3,3 C 92 % 1020,5 hPa 0,0 l/m 0 min 0 min 0 W/m 12,9 km/h (3 Bft) 97,87 %
10.12.2018 17:38 4,4 C 3,9 C 3,3 C 92 % 1020,5 hPa 0,0 l/m 0 min 0 min 0 W/m 12,9 km/h (3 Bft) 95,74 %
10.12.2018 17:36 4,4 C 3,9 C 3,3 C 92 % 1020,5 hPa 0,0 l/m 0 min 0 min 0 W/m 12,9 km/h (3 Bft) 95,74 %
10.12.2018 17:34 4,4 C 3,9 C 3,3 C 91 % 1020,4 hPa 0,0 l/m 0 min 0 min 0 W/m 12,9 km/h (3 Bft) 95,74 %
10.12.2018 17:32 4,4 C 3,9 C 3,3 C 92 % 1020,4 hPa 0,0 l/m 0 min 0 min 0 W/m 16,1 km/h (3 Bft) 97,87 %
10.12.2018 17:30 4,4 C 3,9 C 3,3 C 91 % 1020,4 hPa 0,0 l/m 0 min 0 min 0 W/m 16,1 km/h (3 Bft) 97,83 %
10.12.2018 17:28 4,4 C 3,9 C 3,3 C 91 % 1020,4 hPa 0,0 l/m 0 min 0 min 0 W/m 12,9 km/h (3 Bft) 97,87 %
10.12.2018 17:26 4,4 C 3,9 C 3,3 C 91 % 1020,4 hPa 0,0 l/m 0 min 0 min 0 W/m 19,3 km/h (3 Bft) 97,87 %
10.12.2018 17:24 4,5 C 3,9 C 3,3 C 91 % 1020,3 hPa 0,0 l/m 0 min 0 min 0 W/m 16,1 km/h (3 Bft) 97,87 %
10.12.2018 17:22 4,5 C 3,9 C 3,3 C 91 % 1020,3 hPa 0,0 l/m 0 min 0 min 0 W/m 9,7 km/h (2 Bft) 97,87 %
10.12.2018 17:20 4,5 C 3,9 C 3,3 C 91 % 1020,3 hPa 0,0 l/m 0 min 0 min 0 W/m 19,3 km/h (3 Bft) 95,74 %
10.12.2018 17:18 4,6 C 3,9 C 3,3 C 91 % 1020,3 hPa 0,0 l/m 0 min 0 min 0 W/m 9,7 km/h (2 Bft) 95,65 %
10.12.2018 17:16 4,6 C 3,9 C 3,3 C 91 % 1020,2 hPa 0,0 l/m 0 min 0 min 0 W/m 6,4 km/h (2 Bft) 95,74 %
10.12.2018 17:14 4,6 C 3,9 C 3,3 C 91 % 1020,2 hPa 0,0 l/m 0 min 0 min 0 W/m 16,1 km/h (3 Bft) 97,87 %
10.12.2018 17:12 4,6 C 3,9 C 3,3 C 91 % 1020,2 hPa 0,0 l/m 0 min 0 min 0 W/m 16,1 km/h (3 Bft) 97,87 %
10.12.2018 17:10 4,6 C 3,9 C 3,3 C 91 % 1020,2 hPa 0,0 l/m 0 min 0 min 0 W/m 16,1 km/h (3 Bft) 97,87 %
10.12.2018 17:08 4,7 C 3,9 C 3,3 C 91 % 1020,3 hPa 0,0 l/m 0 min 0 min 0 W/m 12,9 km/h (3 Bft) 97,87 %
10.12.2018 17:06 4,7 C 3,9 C 3,3 C 91 % 1020,2 hPa 0,0 l/m 0 min 0 min 0 W/m 22,5 km/h (4 Bft) 97,83 %
10.12.2018 17:04 4,7 C 3,9 C 3,3 C 91 % 1020,3 hPa 0,0 l/m 0 min 0 min 0 W/m 12,9 km/h (3 Bft) 97,87 %
10.12.2018 17:02 4,7 C 3,9 C 3,3 C 91 % 1020,3 hPa 0,0 l/m 0 min 0 min 0 W/m 12,9 km/h (3 Bft) 97,87 %
10.12.2018 17:00 4,7 C 3,9 C 3,3 C 91 % 1020,2 hPa 0,0 l/m 0 min 0 min 0 W/m 16,1 km/h (3 Bft) 100,00 %
10.12.2018 16:58 4,8 C 3,9 C 3,3 C 91 % 1020,2 hPa 0,0 l/m 0 min 0 min 0 W/m 6,4 km/h (2 Bft) 100,00 %
10.12.2018 16:56 4,8 C 3,9 C 3,3 C 90 % 1020,2 hPa 0,0 l/m 0 min 0 min 0 W/m 16,1 km/h (3 Bft) 100,00 %
10.12.2018 16:54 4,8 C 3,9 C 3,3 C 90 % 1020,2 hPa 0,0 l/m 0 min 0 min 0 W/m 9,7 km/h (2 Bft) 100,00 %
10.12.2018 16:52 4,8 C 3,9 C 3,3 C 90 % 1020,2 hPa 0,0 l/m 0 min 0 min 0 W/m 9,7 km/h (2 Bft) 100,00 %
10.12.2018 16:50 4,9 C 3,9 C 3,3 C 90 % 1020,0 hPa 0,0 l/m 0 min 0 min 0 W/m 16,1 km/h (3 Bft) 100,00 %
10.12.2018 16:48 4,9 C 3,9 C 3,3 C 91 % 1019,9 hPa 0,0 l/m 0 min 0 min 0 W/m 22,5 km/h (4 Bft) 97,87 %
10.12.2018 16:46 4,9 C 4,4 C 3,9 C 91 % 1019,8 hPa 0,0 l/m 0 min 0 min 0 W/m 22,5 km/h (4 Bft) 97,87 %
10.12.2018 16:44 4,9 C 4,4 C 3,9 C 91 % 1019,8 hPa 0,0 l/m 0 min 0 min 0 W/m 16,1 km/h (3 Bft) 97,83 %
10.12.2018 16:42 5,0 C 4,4 C 3,9 C 91 % 1019,8 hPa 0,0 l/m 0 min 0 min 0 W/m 22,5 km/h (4 Bft) 97,87 %
10.12.2018 16:40 5,0 C 4,4 C 3,9 C 91 % 1019,9 hPa 0,0 l/m 0 min 0 min 0 W/m 19,3 km/h (3 Bft) 100,00 %
10.12.2018 16:38 5,0 C 4,4 C 3,9 C 91 % 1019,9 hPa 0,0 l/m 0 min 0 min 0 W/m 29,0 km/h (5 Bft) 100,00 %
10.12.2018 16:36 5,1 C 4,4 C 3,9 C 91 % 1019,8 hPa 0,0 l/m 0 min 0 min 0 W/m 16,1 km/h (3 Bft) 100,00 %
10.12.2018 16:34 5,1 C 4,4 C 3,9 C 91 % 1019,8 hPa 0,0 l/m 0 min 0 min 0 W/m 16,1 km/h (3 Bft) 100,00 %
10.12.2018 16:32 5,1 C 4,4 C 3,9 C 91 % 1019,8 hPa 0,0 l/m 0 min 0 min 0 W/m 16,1 km/h (3 Bft) 100,00 %
10.12.2018 16:30 5,1 C 4,4 C 3,9 C 91 % 1019,9 hPa 0,0 l/m 0 min 0 min 0 W/m 16,1 km/h (3 Bft) 97,87 %
10.12.2018 16:28 5,1 C 4,4 C 3,9 C 90 % 1019,8 hPa 0,0 l/m 0 min 0 min 0 W/m 12,9 km/h (3 Bft) 100,00 %
10.12.2018 16:26 5,1 C 4,4 C 3,9 C 90 % 1019,8 hPa 0,0 l/m 0 min 0 min 0 W/m 12,9 km/h (3 Bft) 100,00 %
10.12.2018 16:24 5,1 C 4,4 C 3,9 C 90 % 1019,7 hPa 0,0 l/m 0 min 0 min 0 W/m 12,9 km/h (3 Bft) 100,00 %
10.12.2018 16:22 5,1 C 4,4 C 3,9 C 90 % 1019,7 hPa 0,0 l/m 0 min 0 min 0 W/m 9,7 km/h (2 Bft) 100,00 %
10.12.2018 16:20 5,1 C 4,4 C 3,9 C 90 % 1019,7 hPa 0,0 l/m 0 min 0 min 4 W/m 12,9 km/h (3 Bft) 100,00 %
10.12.2018 16:18 5,1 C 4,4 C 3,9 C 90 % 1019,7 hPa 0,0 l/m 0 min 0 min 5 W/m 16,1 km/h (3 Bft) 97,87 %
10.12.2018 16:16 5,1 C 4,4 C 3,9 C 90 % 1019,7 hPa 0,0 l/m 0 min 0 min 7 W/m 12,9 km/h (3 Bft) 95,74 %
10.12.2018 16:14 5,2 C 4,4 C 3,9 C 90 % 1019,5 hPa 0,0 l/m 0 min 0 min 7 W/m 9,7 km/h (2 Bft) 97,87 %
10.12.2018 16:12 5,2 C 4,4 C 3,9 C 90 % 1019,5 hPa 0,0 l/m 0 min 0 min 7 W/m 16,1 km/h (3 Bft) 95,74 %
10.12.2018 16:10 5,2 C 4,4 C 3,9 C 89 % 1019,4 hPa 0,0 l/m 0 min 0 min 8 W/m 6,4 km/h (2 Bft) 97,87 %
10.12.2018 16:08 5,2 C 4,4 C 3,9 C 89 % 1019,5 hPa 0,0 l/m 0 min 0 min 9 W/m 9,7 km/h (2 Bft) 95,65 %
10.12.2018 16:06 5,2 C 4,4 C 3,9 C 89 % 1019,6 hPa 0,0 l/m 0 min 0 min 9 W/m 12,9 km/h (3 Bft) 97,87 %
10.12.2018 16:04 5,2 C 4,4 C 3,9 C 89 % 1019,7 hPa 0,0 l/m 0 min 0 min 9 W/m 22,5 km/h (4 Bft) 97,87 %
10.12.2018 16:02 5,3 C 4,4 C 3,9 C 89 % 1019,7 hPa 0,0 l/m 0 min 0 min 11 W/m 16,1 km/h (3 Bft) 93,62 %
10.12.2018 16:00 5,3 C 4,4 C 3,9 C 89 % 1019,7 hPa 0,0 l/m 0 min 0 min 11 W/m 12,9 km/h (3 Bft) 97,87 %
10.12.2018 15:58 5,3 C 4,4 C 3,9 C 89 % 1019,6 hPa 0,0 l/m 0 min 0 min 12 W/m 16,1 km/h (3 Bft) 97,87 %
10.12.2018 15:56 5,3 C 4,4 C 3,9 C 88 % 1019,5 hPa 0,0 l/m 0 min 0 min 12 W/m 22,5 km/h (4 Bft) 97,83 %
10.12.2018 15:54 5,4 C 4,4 C 3,9 C 88 % 1019,6 hPa 0,0 l/m 0 min 0 min 12 W/m 16,1 km/h (3 Bft) 95,74 %
10.12.2018 15:52 5,4 C 4,4 C 3,9 C 88 % 1019,5 hPa 0,0 l/m 0 min 0 min 12 W/m 12,9 km/h (3 Bft) 97,87 %
10.12.2018 15:50 5,4 C 4,4 C 3,9 C 88 % 1019,5 hPa 0,0 l/m 0 min 0 min 12 W/m 12,9 km/h (3 Bft) 97,87 %
10.12.2018 15:48 5,4 C 4,4 C 3,9 C 88 % 1019,6 hPa 0,0 l/m 0 min 0 min 13 W/m 16,1 km/h (3 Bft) 97,87 %
10.12.2018 15:46 5,5 C 4,4 C 3,9 C 88 % 1019,6 hPa 0,0 l/m 0 min 0 min 14 W/m 12,9 km/h (3 Bft) 95,65 %
10.12.2018 15:44 5,6 C 4,4 C 3,9 C 88 % 1019,6 hPa 0,0 l/m 0 min 0 min 14 W/m 12,9 km/h (3 Bft) 95,74 %
10.12.2018 15:42 5,6 C 5,0 C 3,9 C 88 % 1019,5 hPa 0,0 l/m 0 min 0 min 14 W/m 12,9 km/h (3 Bft) 95,74 %
10.12.2018 15:40 5,6 C 5,0 C 4,4 C 88 % 1019,4 hPa 0,0 l/m 0 min 0 min 14 W/m 22,5 km/h (4 Bft) 100,00 %
10.12.2018 15:38 5,6 C 5,0 C 4,4 C 88 % 1019,5 hPa 0,0 l/m 0 min 0 min 16 W/m 16,1 km/h (3 Bft) 100,00 %
10.12.2018 15:36 5,7 C 5,0 C 4,4 C 88 % 1019,5 hPa 0,0 l/m 0 min 0 min 16 W/m 9,7 km/h (2 Bft) 95,74 %
10.12.2018 15:34 5,7 C 5,0 C 4,4 C 88 % 1019,5 hPa 0,0 l/m 0 min 0 min 16 W/m 12,9 km/h (3 Bft) 95,65 %
10.12.2018 15:32 5,7 C 5,0 C 4,4 C 88 % 1019,4 hPa 0,0 l/m 0 min 0 min 18 W/m 19,3 km/h (3 Bft) 100,00 %
10.12.2018 15:30 5,8 C 5,0 C 4,4 C 88 % 1019,4 hPa 0,0 l/m 0 min 0 min 17 W/m 19,3 km/h (3 Bft) 97,87 %
10.12.2018 15:28 5,8 C 5,0 C 4,4 C 88 % 1019,4 hPa 0,0 l/m 0 min 0 min 23 W/m 16,1 km/h (3 Bft) 95,74 %
10.12.2018 15:26 5,9 C 5,0 C 4,4 C 88 % 1019,4 hPa 0,0 l/m 0 min 0 min 25 W/m 16,1 km/h (3 Bft) 95,74 %
10.12.2018 15:24 5,9 C 5,6 C 4,4 C 88 % 1019,3 hPa 0,0 l/m 0 min 0 min 23 W/m 12,9 km/h (3 Bft) 97,87 %
10.12.2018 15:22 5,9 C 5,6 C 4,4 C 89 % 1019,3 hPa 0,0 l/m 0 min 0 min 27 W/m 19,3 km/h (3 Bft) 97,83 %
10.12.2018 15:20 5,9 C 5,6 C 4,4 C 89 % 1019,3 hPa 0,0 l/m 0 min 0 min 34 W/m 9,7 km/h (2 Bft) 97,87 %
10.12.2018 15:18 6,0 C 5,6 C 5,0 C 89 % 1019,3 hPa 0,0 l/m 0 min 0 min 34 W/m 29,0 km/h (5 Bft) 97,87 %
10.12.2018 15:16 6,0 C 5,6 C 5,0 C 89 % 1019,4 hPa 0,0 l/m 0 min 0 min 32 W/m 19,3 km/h (3 Bft) 95,74 %
10.12.2018 15:14 6,1 C 5,6 C 5,0 C 90 % 1019,2 hPa 0,0 l/m 0 min 0 min 36 W/m 19,3 km/h (3 Bft) 97,87 %
10.12.2018 15:12 6,1 C 6,1 C 5,0 C 90 % 1019,2 hPa 0,0 l/m 0 min 0 min 46 W/m 19,3 km/h (3 Bft) 97,87 %
10.12.2018 15:10 6,1 C 6,1 C 5,0 C 90 % 1019,3 hPa 0,0 l/m 0 min 0 min 47 W/m 12,9 km/h (3 Bft) 97,83 %
10.12.2018 15:08 6,1 C 6,1 C 5,0 C 90 % 1019,3 hPa 0,0 l/m 0 min 0 min 52 W/m 9,7 km/h (2 Bft) 97,22 %
10.12.2018 15:06 6,1 C 6,1 C 5,0 C 90 % 1019,2 hPa 0,0 l/m 0 min 0 min 59 W/m 12,9 km/h (3 Bft) 96,55 %
10.12.2018 15:04 6,2 C 6,1 C 5,0 C 90 % 1019,3 hPa 0,0 l/m 0 min 0 min 57 W/m 12,9 km/h (3 Bft) 95,74 %
10.12.2018 15:02 6,2 C 6,1 C 5,0 C 91 % 1019,3 hPa 0,0 l/m 0 min 0 min 43 W/m 12,9 km/h (3 Bft) 95,74 %
10.12.2018 15:00 6,2 C 6,1 C 5,0 C 91 % 1019,3 hPa 0,0 l/m 0 min 0 min 46 W/m 16,1 km/h (3 Bft) 95,74 %
_ Min-Zeit 09:08 04:38 04:40 13:42 15:06 - - - - 05:20 03:06
Minimum _ 2,2 C 1,7 C 1,1 C 82 % 1019,2 hPa - - - - 3,2 km/h (1 Bft) 87,23 %
_ Max-Zeit 13:36 12:40 12:22 05:50 11:06 15:00 12:08 04:06 13:32 15:18 15:32
Maximum _ 7,7 C 15,0 C 8,3 C 95 % 1022,1 hPa 0,0 l/m 4 min 2 min 348 W/m 29,0 km/h
O-NO (5 Bft)
100,00 %
Durchschnitt _ 4,1 C 4,3 C 2,9 C 92 % 1021,1 hPa #0,0 l/m #3:06 h #36 min. 136 W/m 12,0 km/h (2 Bft) 97,29 %
© 2018 W. Hausmann